<?xml version="1.0" encoding="UTF-8" standalone="no" ?>
<gpx xmlns="http://www.topografix.com/GPX/1/1" xmlns:xsi="http://www.w3.org/2001/XMLSchema-instance" xsi:schemaLocation="http://www.topografix.com/GPX/1/1 http://www.topografix.com/GPX/1/1/gpx.xsd" version="1.1" creator="VisuGPX - https://www.visugpx.com">
  <metadata>
    <name>Plan d'Aups - Plan des Vaches Col de Bertagne</name>
  </metadata>
  <trk>
    <name><![CDATA[Plan d'Aups plan des vaches 2019-10-18-01]]></name>
    <trkseg>
      <trkpt lat="43.3236" lon="5.70682">
        <ele>674.4</ele>
        <time>2019-10-18T08:08:12.000Z</time>
      </trkpt>
      <trkpt lat="43.3236" lon="5.70682">
        <ele>674.4</ele>
        <time>2019-10-18T08:08:13.000Z</time>
      </trkpt>
      <trkpt lat="43.32355" lon="5.70671">
        <ele>675.1</ele>
        <time>2019-10-18T08:12:33.000Z</time>
      </trkpt>
      <trkpt lat="43.32351" lon="5.7066">
        <ele>675.5</ele>
        <time>2019-10-18T08:12:43.000Z</time>
      </trkpt>
      <trkpt lat="43.32351" lon="5.70647">
        <ele>674.8</ele>
        <time>2019-10-18T08:13:49.000Z</time>
      </trkpt>
      <trkpt lat="43.32349" lon="5.70635">
        <ele>673.7</ele>
        <time>2019-10-18T08:14:1.000Z</time>
      </trkpt>
      <trkpt lat="43.32343" lon="5.70624">
        <ele>672.6</ele>
        <time>2019-10-18T08:14:14.000Z</time>
      </trkpt>
      <trkpt lat="43.32336" lon="5.70615">
        <ele>672.4</ele>
        <time>2019-10-18T08:14:26.000Z</time>
      </trkpt>
      <trkpt lat="43.32332" lon="5.70604">
        <ele>672.4</ele>
        <time>2019-10-18T08:14:33.000Z</time>
      </trkpt>
      <trkpt lat="43.32329" lon="5.70591">
        <ele>672.6</ele>
        <time>2019-10-18T08:14:40.000Z</time>
      </trkpt>
      <trkpt lat="43.32327" lon="5.70579">
        <ele>672.7</ele>
        <time>2019-10-18T08:14:48.000Z</time>
      </trkpt>
      <trkpt lat="43.32329" lon="5.70566">
        <ele>672.9</ele>
        <time>2019-10-18T08:14:55.000Z</time>
      </trkpt>
      <trkpt lat="43.32333" lon="5.70554">
        <ele>672.6</ele>
        <time>2019-10-18T08:15:8.000Z</time>
      </trkpt>
      <trkpt lat="43.3234" lon="5.70545">
        <ele>672.7</ele>
        <time>2019-10-18T08:15:16.000Z</time>
      </trkpt>
      <trkpt lat="43.32348" lon="5.70539">
        <ele>672.4</ele>
        <time>2019-10-18T08:15:47.000Z</time>
      </trkpt>
      <trkpt lat="43.32353" lon="5.70529">
        <ele>671.2</ele>
        <time>2019-10-18T08:16:2.000Z</time>
      </trkpt>
      <trkpt lat="43.32351" lon="5.70516">
        <ele>671.1</ele>
        <time>2019-10-18T08:16:15.000Z</time>
      </trkpt>
      <trkpt lat="43.3235" lon="5.70503">
        <ele>670.5</ele>
        <time>2019-10-18T08:16:21.000Z</time>
      </trkpt>
      <trkpt lat="43.32355" lon="5.70492">
        <ele>669.4</ele>
        <time>2019-10-18T08:16:28.000Z</time>
      </trkpt>
      <trkpt lat="43.32363" lon="5.70486">
        <ele>668.5</ele>
        <time>2019-10-18T08:16:35.000Z</time>
      </trkpt>
      <trkpt lat="43.32371" lon="5.70478">
        <ele>667.9</ele>
        <time>2019-10-18T08:16:44.000Z</time>
      </trkpt>
      <trkpt lat="43.32379" lon="5.7047">
        <ele>666.8</ele>
        <time>2019-10-18T08:16:53.000Z</time>
      </trkpt>
      <trkpt lat="43.32387" lon="5.70463">
        <ele>666.6</ele>
        <time>2019-10-18T08:17:1.000Z</time>
      </trkpt>
      <trkpt lat="43.32395" lon="5.70455">
        <ele>666.4</ele>
        <time>2019-10-18T08:17:9.000Z</time>
      </trkpt>
      <trkpt lat="43.32403" lon="5.70447">
        <ele>666</ele>
        <time>2019-10-18T08:17:17.000Z</time>
      </trkpt>
      <trkpt lat="43.3241" lon="5.7044">
        <ele>665.3</ele>
        <time>2019-10-18T08:17:25.000Z</time>
      </trkpt>
      <trkpt lat="43.32418" lon="5.70434">
        <ele>665.1</ele>
        <time>2019-10-18T08:17:33.000Z</time>
      </trkpt>
      <trkpt lat="43.32426" lon="5.70426">
        <ele>664.9</ele>
        <time>2019-10-18T08:17:40.000Z</time>
      </trkpt>
      <trkpt lat="43.32431" lon="5.70415">
        <ele>665</ele>
        <time>2019-10-18T08:17:49.000Z</time>
      </trkpt>
      <trkpt lat="43.32434" lon="5.70404">
        <ele>665.2</ele>
        <time>2019-10-18T08:17:58.000Z</time>
      </trkpt>
      <trkpt lat="43.32438" lon="5.70391">
        <ele>665.6</ele>
        <time>2019-10-18T08:18:9.000Z</time>
      </trkpt>
      <trkpt lat="43.32432" lon="5.7038">
        <ele>666.1</ele>
        <time>2019-10-18T08:18:19.000Z</time>
      </trkpt>
      <trkpt lat="43.32425" lon="5.70371">
        <ele>666.4</ele>
        <time>2019-10-18T08:18:28.000Z</time>
      </trkpt>
      <trkpt lat="43.32419" lon="5.70361">
        <ele>667.2</ele>
        <time>2019-10-18T08:18:39.000Z</time>
      </trkpt>
      <trkpt lat="43.32418" lon="5.70348">
        <ele>667.4</ele>
        <time>2019-10-18T08:18:51.000Z</time>
      </trkpt>
      <trkpt lat="43.3242" lon="5.70335">
        <ele>666.6</ele>
        <time>2019-10-18T08:19:1.000Z</time>
      </trkpt>
      <trkpt lat="43.32421" lon="5.70322">
        <ele>665.2</ele>
        <time>2019-10-18T08:19:11.000Z</time>
      </trkpt>
      <trkpt lat="43.32423" lon="5.70309">
        <ele>663.9</ele>
        <time>2019-10-18T08:19:24.000Z</time>
      </trkpt>
      <trkpt lat="43.32431" lon="5.70304">
        <ele>662.1</ele>
        <time>2019-10-18T08:19:41.000Z</time>
      </trkpt>
      <trkpt lat="43.32441" lon="5.70305">
        <ele>661.4</ele>
        <time>2019-10-18T08:19:50.000Z</time>
      </trkpt>
      <trkpt lat="43.3245" lon="5.70306">
        <ele>661</ele>
        <time>2019-10-18T08:20:1.000Z</time>
      </trkpt>
      <trkpt lat="43.3246" lon="5.70304">
        <ele>660.6</ele>
        <time>2019-10-18T08:20:11.000Z</time>
      </trkpt>
      <trkpt lat="43.3247" lon="5.70302">
        <ele>660.3</ele>
        <time>2019-10-18T08:20:18.000Z</time>
      </trkpt>
      <trkpt lat="43.32479" lon="5.70299">
        <ele>659.6</ele>
        <time>2019-10-18T08:20:26.000Z</time>
      </trkpt>
      <trkpt lat="43.32488" lon="5.70297">
        <ele>659</ele>
        <time>2019-10-18T08:20:36.000Z</time>
      </trkpt>
      <trkpt lat="43.32498" lon="5.70293">
        <ele>658.8</ele>
        <time>2019-10-18T08:20:44.000Z</time>
      </trkpt>
      <trkpt lat="43.32508" lon="5.7029">
        <ele>658.2</ele>
        <time>2019-10-18T08:20:53.000Z</time>
      </trkpt>
      <trkpt lat="43.32517" lon="5.70285">
        <ele>657.7</ele>
        <time>2019-10-18T08:21:1.000Z</time>
      </trkpt>
      <trkpt lat="43.32526" lon="5.70284">
        <ele>656.8</ele>
        <time>2019-10-18T08:21:16.000Z</time>
      </trkpt>
      <trkpt lat="43.32535" lon="5.70279">
        <ele>655.8</ele>
        <time>2019-10-18T08:21:25.000Z</time>
      </trkpt>
      <trkpt lat="43.32545" lon="5.70275">
        <ele>655.4</ele>
        <time>2019-10-18T08:21:33.000Z</time>
      </trkpt>
      <trkpt lat="43.32554" lon="5.70273">
        <ele>654.6</ele>
        <time>2019-10-18T08:21:41.000Z</time>
      </trkpt>
      <trkpt lat="43.32564" lon="5.70272">
        <ele>653.8</ele>
        <time>2019-10-18T08:21:49.000Z</time>
      </trkpt>
      <trkpt lat="43.32573" lon="5.70268">
        <ele>653</ele>
        <time>2019-10-18T08:21:57.000Z</time>
      </trkpt>
      <trkpt lat="43.32581" lon="5.70265">
        <ele>652.3</ele>
        <time>2019-10-18T08:22:4.000Z</time>
      </trkpt>
      <trkpt lat="43.32591" lon="5.70263">
        <ele>652</ele>
        <time>2019-10-18T08:22:12.000Z</time>
      </trkpt>
      <trkpt lat="43.326" lon="5.70259">
        <ele>651.6</ele>
        <time>2019-10-18T08:22:23.000Z</time>
      </trkpt>
      <trkpt lat="43.32609" lon="5.70255">
        <ele>651.1</ele>
        <time>2019-10-18T08:22:33.000Z</time>
      </trkpt>
      <trkpt lat="43.32618" lon="5.70253">
        <ele>650.1</ele>
        <time>2019-10-18T08:22:43.000Z</time>
      </trkpt>
      <trkpt lat="43.32627" lon="5.70248">
        <ele>648.8</ele>
        <time>2019-10-18T08:22:56.000Z</time>
      </trkpt>
      <trkpt lat="43.32636" lon="5.70249">
        <ele>648.2</ele>
        <time>2019-10-18T08:23:4.000Z</time>
      </trkpt>
      <trkpt lat="43.32645" lon="5.7025">
        <ele>648</ele>
        <time>2019-10-18T08:23:12.000Z</time>
      </trkpt>
      <trkpt lat="43.32655" lon="5.7025">
        <ele>647.8</ele>
        <time>2019-10-18T08:23:20.000Z</time>
      </trkpt>
      <trkpt lat="43.32664" lon="5.70248">
        <ele>647.8</ele>
        <time>2019-10-18T08:23:29.000Z</time>
      </trkpt>
      <trkpt lat="43.32671" lon="5.7024">
        <ele>647.7</ele>
        <time>2019-10-18T08:23:41.000Z</time>
      </trkpt>
      <trkpt lat="43.32677" lon="5.70229">
        <ele>648</ele>
        <time>2019-10-18T08:23:50.000Z</time>
      </trkpt>
      <trkpt lat="43.32686" lon="5.70226">
        <ele>647.7</ele>
        <time>2019-10-18T08:24:1.000Z</time>
      </trkpt>
      <trkpt lat="43.32694" lon="5.70221">
        <ele>647.6</ele>
        <time>2019-10-18T08:24:51.000Z</time>
      </trkpt>
      <trkpt lat="43.32696" lon="5.70208">
        <ele>647.6</ele>
        <time>2019-10-18T08:25:0.000Z</time>
      </trkpt>
      <trkpt lat="43.32699" lon="5.70196">
        <ele>647.4</ele>
        <time>2019-10-18T08:25:9.000Z</time>
      </trkpt>
      <trkpt lat="43.32702" lon="5.70184">
        <ele>647.6</ele>
        <time>2019-10-18T08:25:17.000Z</time>
      </trkpt>
      <trkpt lat="43.32706" lon="5.70172">
        <ele>647.3</ele>
        <time>2019-10-18T08:25:24.000Z</time>
      </trkpt>
      <trkpt lat="43.3271" lon="5.70159">
        <ele>646.5</ele>
        <time>2019-10-18T08:25:32.000Z</time>
      </trkpt>
      <trkpt lat="43.32715" lon="5.70149">
        <ele>646.5</ele>
        <time>2019-10-18T08:25:40.000Z</time>
      </trkpt>
      <trkpt lat="43.32719" lon="5.70137">
        <ele>646.4</ele>
        <time>2019-10-18T08:25:48.000Z</time>
      </trkpt>
      <trkpt lat="43.32723" lon="5.70125">
        <ele>646.3</ele>
        <time>2019-10-18T08:25:56.000Z</time>
      </trkpt>
      <trkpt lat="43.32721" lon="5.70113">
        <ele>645.6</ele>
        <time>2019-10-18T08:26:7.000Z</time>
      </trkpt>
      <trkpt lat="43.32726" lon="5.70101">
        <ele>645.6</ele>
        <time>2019-10-18T08:26:19.000Z</time>
      </trkpt>
      <trkpt lat="43.32733" lon="5.70092">
        <ele>645.3</ele>
        <time>2019-10-18T08:26:29.000Z</time>
      </trkpt>
      <trkpt lat="43.32738" lon="5.70081">
        <ele>645.4</ele>
        <time>2019-10-18T08:26:43.000Z</time>
      </trkpt>
      <trkpt lat="43.32741" lon="5.70069">
        <ele>646.3</ele>
        <time>2019-10-18T08:26:54.000Z</time>
      </trkpt>
      <trkpt lat="43.32743" lon="5.70057">
        <ele>647</ele>
        <time>2019-10-18T08:27:8.000Z</time>
      </trkpt>
      <trkpt lat="43.32748" lon="5.70045">
        <ele>647.2</ele>
        <time>2019-10-18T08:27:20.000Z</time>
      </trkpt>
      <trkpt lat="43.32751" lon="5.7003">
        <ele>647.7</ele>
        <time>2019-10-18T08:27:30.000Z</time>
      </trkpt>
      <trkpt lat="43.3275" lon="5.70017">
        <ele>648.6</ele>
        <time>2019-10-18T08:27:39.000Z</time>
      </trkpt>
      <trkpt lat="43.32747" lon="5.70005">
        <ele>649.4</ele>
        <time>2019-10-18T08:27:50.000Z</time>
      </trkpt>
      <trkpt lat="43.3275" lon="5.69993">
        <ele>649.7</ele>
        <time>2019-10-18T08:27:59.000Z</time>
      </trkpt>
      <trkpt lat="43.32753" lon="5.6998">
        <ele>649</ele>
        <time>2019-10-18T08:28:11.000Z</time>
      </trkpt>
      <trkpt lat="43.3276" lon="5.69971">
        <ele>647.5</ele>
        <time>2019-10-18T08:28:20.000Z</time>
      </trkpt>
      <trkpt lat="43.32757" lon="5.69959">
        <ele>647.4</ele>
        <time>2019-10-18T08:28:34.000Z</time>
      </trkpt>
      <trkpt lat="43.3275" lon="5.6995">
        <ele>648.2</ele>
        <time>2019-10-18T08:28:48.000Z</time>
      </trkpt>
      <trkpt lat="43.32747" lon="5.69938">
        <ele>648.6</ele>
        <time>2019-10-18T08:29:1.000Z</time>
      </trkpt>
      <trkpt lat="43.32744" lon="5.69925">
        <ele>649.2</ele>
        <time>2019-10-18T08:29:11.000Z</time>
      </trkpt>
      <trkpt lat="43.32743" lon="5.69912">
        <ele>649.5</ele>
        <time>2019-10-18T08:29:20.000Z</time>
      </trkpt>
      <trkpt lat="43.32737" lon="5.69902">
        <ele>649.9</ele>
        <time>2019-10-18T08:29:32.000Z</time>
      </trkpt>
      <trkpt lat="43.32736" lon="5.69889">
        <ele>650.5</ele>
        <time>2019-10-18T08:29:42.000Z</time>
      </trkpt>
      <trkpt lat="43.32728" lon="5.69882">
        <ele>650.8</ele>
        <time>2019-10-18T08:29:52.000Z</time>
      </trkpt>
      <trkpt lat="43.32722" lon="5.69871">
        <ele>651.8</ele>
        <time>2019-10-18T08:30:1.000Z</time>
      </trkpt>
      <trkpt lat="43.32718" lon="5.69859">
        <ele>652.9</ele>
        <time>2019-10-18T08:30:9.000Z</time>
      </trkpt>
      <trkpt lat="43.32717" lon="5.69845">
        <ele>653.5</ele>
        <time>2019-10-18T08:30:16.000Z</time>
      </trkpt>
      <trkpt lat="43.32719" lon="5.69833">
        <ele>654.4</ele>
        <time>2019-10-18T08:30:23.000Z</time>
      </trkpt>
      <trkpt lat="43.32717" lon="5.6982">
        <ele>655.5</ele>
        <time>2019-10-18T08:30:31.000Z</time>
      </trkpt>
      <trkpt lat="43.32716" lon="5.69807">
        <ele>656.6</ele>
        <time>2019-10-18T08:30:40.000Z</time>
      </trkpt>
      <trkpt lat="43.32716" lon="5.69794">
        <ele>658</ele>
        <time>2019-10-18T08:30:51.000Z</time>
      </trkpt>
      <trkpt lat="43.32713" lon="5.69783">
        <ele>659.1</ele>
        <time>2019-10-18T08:31:8.000Z</time>
      </trkpt>
      <trkpt lat="43.32705" lon="5.69776">
        <ele>659.2</ele>
        <time>2019-10-18T08:31:18.000Z</time>
      </trkpt>
      <trkpt lat="43.32696" lon="5.6978">
        <ele>660</ele>
        <time>2019-10-18T08:31:32.000Z</time>
      </trkpt>
      <trkpt lat="43.32687" lon="5.69786">
        <ele>660.9</ele>
        <time>2019-10-18T08:31:44.000Z</time>
      </trkpt>
      <trkpt lat="43.32678" lon="5.69789">
        <ele>661.9</ele>
        <time>2019-10-18T08:31:54.000Z</time>
      </trkpt>
      <trkpt lat="43.32668" lon="5.6979">
        <ele>663.5</ele>
        <time>2019-10-18T08:32:6.000Z</time>
      </trkpt>
      <trkpt lat="43.32659" lon="5.69792">
        <ele>665.5</ele>
        <time>2019-10-18T08:32:17.000Z</time>
      </trkpt>
      <trkpt lat="43.3265" lon="5.69797">
        <ele>667.2</ele>
        <time>2019-10-18T08:32:32.000Z</time>
      </trkpt>
      <trkpt lat="43.3264" lon="5.69796">
        <ele>668.9</ele>
        <time>2019-10-18T08:32:45.000Z</time>
      </trkpt>
      <trkpt lat="43.32631" lon="5.69793">
        <ele>670.8</ele>
        <time>2019-10-18T08:32:56.000Z</time>
      </trkpt>
      <trkpt lat="43.32623" lon="5.69787">
        <ele>672.4</ele>
        <time>2019-10-18T08:33:6.000Z</time>
      </trkpt>
      <trkpt lat="43.32615" lon="5.6978">
        <ele>673.6</ele>
        <time>2019-10-18T08:33:16.000Z</time>
      </trkpt>
      <trkpt lat="43.32606" lon="5.69775">
        <ele>674.4</ele>
        <time>2019-10-18T08:33:27.000Z</time>
      </trkpt>
      <trkpt lat="43.32597" lon="5.69771">
        <ele>674.5</ele>
        <time>2019-10-18T08:33:38.000Z</time>
      </trkpt>
      <trkpt lat="43.32589" lon="5.69765">
        <ele>674.7</ele>
        <time>2019-10-18T08:34:4.000Z</time>
      </trkpt>
      <trkpt lat="43.32583" lon="5.69756">
        <ele>675.4</ele>
        <time>2019-10-18T08:36:57.000Z</time>
      </trkpt>
      <trkpt lat="43.32574" lon="5.69751">
        <ele>674.7</ele>
        <time>2019-10-18T08:37:9.000Z</time>
      </trkpt>
      <trkpt lat="43.32566" lon="5.69746">
        <ele>673.9</ele>
        <time>2019-10-18T08:37:18.000Z</time>
      </trkpt>
      <trkpt lat="43.32557" lon="5.69742">
        <ele>671.9</ele>
        <time>2019-10-18T08:37:29.000Z</time>
      </trkpt>
      <trkpt lat="43.32548" lon="5.69737">
        <ele>670.9</ele>
        <time>2019-10-18T08:37:38.000Z</time>
      </trkpt>
      <trkpt lat="43.3254" lon="5.69731">
        <ele>670.1</ele>
        <time>2019-10-18T08:37:50.000Z</time>
      </trkpt>
      <trkpt lat="43.32531" lon="5.69727">
        <ele>669.3</ele>
        <time>2019-10-18T08:37:59.000Z</time>
      </trkpt>
      <trkpt lat="43.32522" lon="5.69721">
        <ele>667.7</ele>
        <time>2019-10-18T08:38:9.000Z</time>
      </trkpt>
      <trkpt lat="43.32513" lon="5.69714">
        <ele>666.6</ele>
        <time>2019-10-18T08:38:24.000Z</time>
      </trkpt>
      <trkpt lat="43.32506" lon="5.69705">
        <ele>666</ele>
        <time>2019-10-18T08:38:31.000Z</time>
      </trkpt>
      <trkpt lat="43.32499" lon="5.69696">
        <ele>666</ele>
        <time>2019-10-18T08:38:38.000Z</time>
      </trkpt>
      <trkpt lat="43.32494" lon="5.69685">
        <ele>665.6</ele>
        <time>2019-10-18T08:38:47.000Z</time>
      </trkpt>
      <trkpt lat="43.32489" lon="5.69674">
        <ele>665.3</ele>
        <time>2019-10-18T08:38:57.000Z</time>
      </trkpt>
      <trkpt lat="43.32483" lon="5.69663">
        <ele>665.6</ele>
        <time>2019-10-18T08:39:6.000Z</time>
      </trkpt>
      <trkpt lat="43.32478" lon="5.69653">
        <ele>665.8</ele>
        <time>2019-10-18T08:39:15.000Z</time>
      </trkpt>
      <trkpt lat="43.32472" lon="5.69642">
        <ele>666.3</ele>
        <time>2019-10-18T08:39:25.000Z</time>
      </trkpt>
      <trkpt lat="43.32465" lon="5.69633">
        <ele>666.9</ele>
        <time>2019-10-18T08:39:34.000Z</time>
      </trkpt>
      <trkpt lat="43.32458" lon="5.69625">
        <ele>667</ele>
        <time>2019-10-18T08:39:43.000Z</time>
      </trkpt>
      <trkpt lat="43.32451" lon="5.69616">
        <ele>667.5</ele>
        <time>2019-10-18T08:39:48.000Z</time>
      </trkpt>
      <trkpt lat="43.32445" lon="5.69607">
        <ele>668.8</ele>
        <time>2019-10-18T08:40:0.000Z</time>
      </trkpt>
      <trkpt lat="43.32439" lon="5.69598">
        <ele>670.1</ele>
        <time>2019-10-18T08:40:11.000Z</time>
      </trkpt>
      <trkpt lat="43.32433" lon="5.69587">
        <ele>672.2</ele>
        <time>2019-10-18T08:40:25.000Z</time>
      </trkpt>
      <trkpt lat="43.32425" lon="5.69577">
        <ele>673.2</ele>
        <time>2019-10-18T08:40:37.000Z</time>
      </trkpt>
      <trkpt lat="43.32419" lon="5.69568">
        <ele>674</ele>
        <time>2019-10-18T08:40:46.000Z</time>
      </trkpt>
      <trkpt lat="43.32412" lon="5.69559">
        <ele>674.8</ele>
        <time>2019-10-18T08:40:55.000Z</time>
      </trkpt>
      <trkpt lat="43.32404" lon="5.6955">
        <ele>675.5</ele>
        <time>2019-10-18T08:41:6.000Z</time>
      </trkpt>
      <trkpt lat="43.32398" lon="5.6954">
        <ele>676.8</ele>
        <time>2019-10-18T08:41:18.000Z</time>
      </trkpt>
      <trkpt lat="43.32394" lon="5.69529">
        <ele>678</ele>
        <time>2019-10-18T08:41:28.000Z</time>
      </trkpt>
      <trkpt lat="43.3239" lon="5.69516">
        <ele>678.7</ele>
        <time>2019-10-18T08:41:38.000Z</time>
      </trkpt>
      <trkpt lat="43.32386" lon="5.69504">
        <ele>679.4</ele>
        <time>2019-10-18T08:41:48.000Z</time>
      </trkpt>
      <trkpt lat="43.32382" lon="5.69492">
        <ele>680.2</ele>
        <time>2019-10-18T08:41:57.000Z</time>
      </trkpt>
      <trkpt lat="43.32381" lon="5.6948">
        <ele>680.3</ele>
        <time>2019-10-18T08:42:4.000Z</time>
      </trkpt>
      <trkpt lat="43.32378" lon="5.69468">
        <ele>681.2</ele>
        <time>2019-10-18T08:42:11.000Z</time>
      </trkpt>
      <trkpt lat="43.32376" lon="5.69455">
        <ele>682.2</ele>
        <time>2019-10-18T08:42:19.000Z</time>
      </trkpt>
      <trkpt lat="43.32374" lon="5.69443">
        <ele>682.7</ele>
        <time>2019-10-18T08:42:30.000Z</time>
      </trkpt>
      <trkpt lat="43.32373" lon="5.69431">
        <ele>683.5</ele>
        <time>2019-10-18T08:42:44.000Z</time>
      </trkpt>
      <trkpt lat="43.32366" lon="5.69421">
        <ele>684.2</ele>
        <time>2019-10-18T08:42:54.000Z</time>
      </trkpt>
      <trkpt lat="43.3236" lon="5.6941">
        <ele>684.8</ele>
        <time>2019-10-18T08:43:3.000Z</time>
      </trkpt>
      <trkpt lat="43.32354" lon="5.694">
        <ele>685</ele>
        <time>2019-10-18T08:43:14.000Z</time>
      </trkpt>
      <trkpt lat="43.32348" lon="5.6939">
        <ele>686</ele>
        <time>2019-10-18T08:43:24.000Z</time>
      </trkpt>
      <trkpt lat="43.3234" lon="5.69382">
        <ele>686.4</ele>
        <time>2019-10-18T08:43:36.000Z</time>
      </trkpt>
      <trkpt lat="43.32334" lon="5.69372">
        <ele>686</ele>
        <time>2019-10-18T08:43:48.000Z</time>
      </trkpt>
      <trkpt lat="43.32328" lon="5.69362">
        <ele>686.4</ele>
        <time>2019-10-18T08:43:56.000Z</time>
      </trkpt>
      <trkpt lat="43.32325" lon="5.6935">
        <ele>686.6</ele>
        <time>2019-10-18T08:44:7.000Z</time>
      </trkpt>
      <trkpt lat="43.32318" lon="5.69342">
        <ele>686.3</ele>
        <time>2019-10-18T08:44:16.000Z</time>
      </trkpt>
      <trkpt lat="43.32311" lon="5.69333">
        <ele>686.3</ele>
        <time>2019-10-18T08:44:23.000Z</time>
      </trkpt>
      <trkpt lat="43.32303" lon="5.69326">
        <ele>686.6</ele>
        <time>2019-10-18T08:44:31.000Z</time>
      </trkpt>
      <trkpt lat="43.32296" lon="5.69316">
        <ele>686.8</ele>
        <time>2019-10-18T08:44:39.000Z</time>
      </trkpt>
      <trkpt lat="43.32288" lon="5.69307">
        <ele>686.6</ele>
        <time>2019-10-18T08:44:47.000Z</time>
      </trkpt>
      <trkpt lat="43.32282" lon="5.69296">
        <ele>686.8</ele>
        <time>2019-10-18T08:44:55.000Z</time>
      </trkpt>
      <trkpt lat="43.32274" lon="5.69286">
        <ele>687</ele>
        <time>2019-10-18T08:45:3.000Z</time>
      </trkpt>
      <trkpt lat="43.32266" lon="5.69278">
        <ele>687.5</ele>
        <time>2019-10-18T08:45:11.000Z</time>
      </trkpt>
      <trkpt lat="43.32259" lon="5.69268">
        <ele>688.1</ele>
        <time>2019-10-18T08:45:20.000Z</time>
      </trkpt>
      <trkpt lat="43.32254" lon="5.69257">
        <ele>688.5</ele>
        <time>2019-10-18T08:45:28.000Z</time>
      </trkpt>
      <trkpt lat="43.32247" lon="5.69248">
        <ele>688.7</ele>
        <time>2019-10-18T08:45:35.000Z</time>
      </trkpt>
      <trkpt lat="43.3224" lon="5.69239">
        <ele>688.5</ele>
        <time>2019-10-18T08:45:45.000Z</time>
      </trkpt>
      <trkpt lat="43.32237" lon="5.69226">
        <ele>688.7</ele>
        <time>2019-10-18T08:45:53.000Z</time>
      </trkpt>
      <trkpt lat="43.32233" lon="5.69214">
        <ele>688.7</ele>
        <time>2019-10-18T08:46:2.000Z</time>
      </trkpt>
      <trkpt lat="43.32229" lon="5.69203">
        <ele>689.1</ele>
        <time>2019-10-18T08:46:9.000Z</time>
      </trkpt>
      <trkpt lat="43.32224" lon="5.6919">
        <ele>689.5</ele>
        <time>2019-10-18T08:46:19.000Z</time>
      </trkpt>
      <trkpt lat="43.32217" lon="5.69181">
        <ele>690.1</ele>
        <time>2019-10-18T08:46:29.000Z</time>
      </trkpt>
      <trkpt lat="43.3221" lon="5.69172">
        <ele>691</ele>
        <time>2019-10-18T08:46:39.000Z</time>
      </trkpt>
      <trkpt lat="43.32205" lon="5.69161">
        <ele>691.8</ele>
        <time>2019-10-18T08:46:51.000Z</time>
      </trkpt>
      <trkpt lat="43.32198" lon="5.69153">
        <ele>692.6</ele>
        <time>2019-10-18T08:46:58.000Z</time>
      </trkpt>
      <trkpt lat="43.3219" lon="5.69146">
        <ele>694.3</ele>
        <time>2019-10-18T08:47:8.000Z</time>
      </trkpt>
      <trkpt lat="43.32183" lon="5.69138">
        <ele>696.6</ele>
        <time>2019-10-18T08:47:21.000Z</time>
      </trkpt>
      <trkpt lat="43.32174" lon="5.69131">
        <ele>698.1</ele>
        <time>2019-10-18T08:47:34.000Z</time>
      </trkpt>
      <trkpt lat="43.32166" lon="5.69124">
        <ele>699.7</ele>
        <time>2019-10-18T08:47:47.000Z</time>
      </trkpt>
      <trkpt lat="43.32158" lon="5.69118">
        <ele>700.7</ele>
        <time>2019-10-18T08:47:56.000Z</time>
      </trkpt>
      <trkpt lat="43.3215" lon="5.69111">
        <ele>702</ele>
        <time>2019-10-18T08:48:8.000Z</time>
      </trkpt>
      <trkpt lat="43.32146" lon="5.69101">
        <ele>702.7</ele>
        <time>2019-10-18T08:48:18.000Z</time>
      </trkpt>
      <trkpt lat="43.3214" lon="5.6909">
        <ele>703.7</ele>
        <time>2019-10-18T08:48:29.000Z</time>
      </trkpt>
      <trkpt lat="43.3214" lon="5.69076">
        <ele>704.5</ele>
        <time>2019-10-18T08:48:39.000Z</time>
      </trkpt>
      <trkpt lat="43.32137" lon="5.69064">
        <ele>705.1</ele>
        <time>2019-10-18T08:48:49.000Z</time>
      </trkpt>
      <trkpt lat="43.32135" lon="5.69052">
        <ele>705.8</ele>
        <time>2019-10-18T08:49:2.000Z</time>
      </trkpt>
      <trkpt lat="43.3213" lon="5.69041">
        <ele>707.3</ele>
        <time>2019-10-18T08:49:15.000Z</time>
      </trkpt>
      <trkpt lat="43.32122" lon="5.69034">
        <ele>709.1</ele>
        <time>2019-10-18T08:49:27.000Z</time>
      </trkpt>
      <trkpt lat="43.32114" lon="5.69027">
        <ele>710.7</ele>
        <time>2019-10-18T08:49:37.000Z</time>
      </trkpt>
      <trkpt lat="43.32106" lon="5.69019">
        <ele>712.6</ele>
        <time>2019-10-18T08:49:46.000Z</time>
      </trkpt>
      <trkpt lat="43.32102" lon="5.69009">
        <ele>714.1</ele>
        <time>2019-10-18T08:49:58.000Z</time>
      </trkpt>
      <trkpt lat="43.32094" lon="5.69002">
        <ele>715.6</ele>
        <time>2019-10-18T08:50:9.000Z</time>
      </trkpt>
      <trkpt lat="43.32088" lon="5.68992">
        <ele>716.9</ele>
        <time>2019-10-18T08:50:21.000Z</time>
      </trkpt>
      <trkpt lat="43.32084" lon="5.68981">
        <ele>718.4</ele>
        <time>2019-10-18T08:50:34.000Z</time>
      </trkpt>
      <trkpt lat="43.32079" lon="5.6897">
        <ele>720.1</ele>
        <time>2019-10-18T08:50:47.000Z</time>
      </trkpt>
      <trkpt lat="43.32071" lon="5.68962">
        <ele>721.7</ele>
        <time>2019-10-18T08:50:57.000Z</time>
      </trkpt>
      <trkpt lat="43.32064" lon="5.68952">
        <ele>723.2</ele>
        <time>2019-10-18T08:51:12.000Z</time>
      </trkpt>
      <trkpt lat="43.32061" lon="5.68941">
        <ele>724.8</ele>
        <time>2019-10-18T08:51:25.000Z</time>
      </trkpt>
      <trkpt lat="43.32053" lon="5.68933">
        <ele>727.3</ele>
        <time>2019-10-18T08:51:43.000Z</time>
      </trkpt>
      <trkpt lat="43.32045" lon="5.68925">
        <ele>728.8</ele>
        <time>2019-10-18T08:51:53.000Z</time>
      </trkpt>
      <trkpt lat="43.32039" lon="5.68916">
        <ele>730.3</ele>
        <time>2019-10-18T08:52:5.000Z</time>
      </trkpt>
      <trkpt lat="43.32033" lon="5.68906">
        <ele>731.6</ele>
        <time>2019-10-18T08:52:15.000Z</time>
      </trkpt>
      <trkpt lat="43.32027" lon="5.68896">
        <ele>733.3</ele>
        <time>2019-10-18T08:52:29.000Z</time>
      </trkpt>
      <trkpt lat="43.32019" lon="5.68888">
        <ele>734.4</ele>
        <time>2019-10-18T08:52:40.000Z</time>
      </trkpt>
      <trkpt lat="43.32012" lon="5.6888">
        <ele>735.6</ele>
        <time>2019-10-18T08:52:51.000Z</time>
      </trkpt>
      <trkpt lat="43.32006" lon="5.68871">
        <ele>736.4</ele>
        <time>2019-10-18T08:53:2.000Z</time>
      </trkpt>
      <trkpt lat="43.31999" lon="5.68862">
        <ele>737.3</ele>
        <time>2019-10-18T08:53:9.000Z</time>
      </trkpt>
      <trkpt lat="43.31991" lon="5.68852">
        <ele>737.8</ele>
        <time>2019-10-18T08:53:17.000Z</time>
      </trkpt>
      <trkpt lat="43.31985" lon="5.68842">
        <ele>738.4</ele>
        <time>2019-10-18T08:53:28.000Z</time>
      </trkpt>
      <trkpt lat="43.31976" lon="5.68832">
        <ele>738.5</ele>
        <time>2019-10-18T08:53:39.000Z</time>
      </trkpt>
      <trkpt lat="43.31969" lon="5.68824">
        <ele>738.6</ele>
        <time>2019-10-18T08:53:46.000Z</time>
      </trkpt>
      <trkpt lat="43.31961" lon="5.68816">
        <ele>738.4</ele>
        <time>2019-10-18T08:53:55.000Z</time>
      </trkpt>
      <trkpt lat="43.31954" lon="5.68806">
        <ele>738.7</ele>
        <time>2019-10-18T08:54:3.000Z</time>
      </trkpt>
      <trkpt lat="43.3195" lon="5.68795">
        <ele>739.2</ele>
        <time>2019-10-18T08:54:13.000Z</time>
      </trkpt>
      <trkpt lat="43.31949" lon="5.68782">
        <ele>739.7</ele>
        <time>2019-10-18T08:54:23.000Z</time>
      </trkpt>
      <trkpt lat="43.31946" lon="5.6877">
        <ele>740.5</ele>
        <time>2019-10-18T08:54:33.000Z</time>
      </trkpt>
      <trkpt lat="43.31941" lon="5.68758">
        <ele>742.3</ele>
        <time>2019-10-18T08:54:44.000Z</time>
      </trkpt>
      <trkpt lat="43.31936" lon="5.68747">
        <ele>744.2</ele>
        <time>2019-10-18T08:54:59.000Z</time>
      </trkpt>
      <trkpt lat="43.31931" lon="5.68736">
        <ele>746.3</ele>
        <time>2019-10-18T08:55:12.000Z</time>
      </trkpt>
      <trkpt lat="43.31927" lon="5.68725">
        <ele>749.2</ele>
        <time>2019-10-18T08:55:29.000Z</time>
      </trkpt>
      <trkpt lat="43.31925" lon="5.68712">
        <ele>752</ele>
        <time>2019-10-18T08:55:46.000Z</time>
      </trkpt>
      <trkpt lat="43.31921" lon="5.68701">
        <ele>755.2</ele>
        <time>2019-10-18T08:56:5.000Z</time>
      </trkpt>
      <trkpt lat="43.31912" lon="5.68702">
        <ele>756.3</ele>
        <time>2019-10-18T08:57:1.000Z</time>
      </trkpt>
      <trkpt lat="43.31914" lon="5.6869">
        <ele>756.6</ele>
        <time>2019-10-18T09:00:9.000Z</time>
      </trkpt>
      <trkpt lat="43.31921" lon="5.68682">
        <ele>755.2</ele>
        <time>2019-10-18T09:00:23.000Z</time>
      </trkpt>
      <trkpt lat="43.31922" lon="5.68669">
        <ele>755.6</ele>
        <time>2019-10-18T09:00:36.000Z</time>
      </trkpt>
      <trkpt lat="43.31923" lon="5.68656">
        <ele>756.7</ele>
        <time>2019-10-18T09:00:49.000Z</time>
      </trkpt>
      <trkpt lat="43.31927" lon="5.68644">
        <ele>757.4</ele>
        <time>2019-10-18T09:01:0.000Z</time>
      </trkpt>
      <trkpt lat="43.31932" lon="5.68633">
        <ele>757.5</ele>
        <time>2019-10-18T09:01:12.000Z</time>
      </trkpt>
      <trkpt lat="43.31936" lon="5.68622">
        <ele>758.7</ele>
        <time>2019-10-18T09:01:22.000Z</time>
      </trkpt>
      <trkpt lat="43.31937" lon="5.68608">
        <ele>761.3</ele>
        <time>2019-10-18T09:01:39.000Z</time>
      </trkpt>
      <trkpt lat="43.31945" lon="5.68601">
        <ele>763.8</ele>
        <time>2019-10-18T09:01:54.000Z</time>
      </trkpt>
      <trkpt lat="43.31953" lon="5.68595">
        <ele>765.4</ele>
        <time>2019-10-18T09:02:7.000Z</time>
      </trkpt>
      <trkpt lat="43.31961" lon="5.68589">
        <ele>767</ele>
        <time>2019-10-18T09:02:24.000Z</time>
      </trkpt>
      <trkpt lat="43.31968" lon="5.68581">
        <ele>769.2</ele>
        <time>2019-10-18T09:02:42.000Z</time>
      </trkpt>
      <trkpt lat="43.31978" lon="5.68583">
        <ele>770.2</ele>
        <time>2019-10-18T09:02:58.000Z</time>
      </trkpt>
      <trkpt lat="43.31987" lon="5.68586">
        <ele>770.6</ele>
        <time>2019-10-18T09:03:27.000Z</time>
      </trkpt>
      <trkpt lat="43.31994" lon="5.68595">
        <ele>771.8</ele>
        <time>2019-10-18T09:03:45.000Z</time>
      </trkpt>
      <trkpt lat="43.32003" lon="5.68597">
        <ele>777.2</ele>
        <time>2019-10-18T09:04:14.000Z</time>
      </trkpt>
      <trkpt lat="43.31993" lon="5.68598">
        <ele>773.8</ele>
        <time>2019-10-18T09:05:20.000Z</time>
      </trkpt>
      <trkpt lat="43.32" lon="5.68607">
        <ele>773.3</ele>
        <time>2019-10-18T09:05:36.000Z</time>
      </trkpt>
      <trkpt lat="43.32007" lon="5.68617">
        <ele>773</ele>
        <time>2019-10-18T09:05:46.000Z</time>
      </trkpt>
      <trkpt lat="43.32014" lon="5.68625">
        <ele>772.5</ele>
        <time>2019-10-18T09:05:56.000Z</time>
      </trkpt>
      <trkpt lat="43.32023" lon="5.68628">
        <ele>774.4</ele>
        <time>2019-10-18T09:06:7.000Z</time>
      </trkpt>
      <trkpt lat="43.32031" lon="5.68636">
        <ele>775.4</ele>
        <time>2019-10-18T09:06:15.000Z</time>
      </trkpt>
      <trkpt lat="43.32039" lon="5.68643">
        <ele>773.8</ele>
        <time>2019-10-18T09:06:22.000Z</time>
      </trkpt>
      <trkpt lat="43.3205" lon="5.68644">
        <ele>772.9</ele>
        <time>2019-10-18T09:06:32.000Z</time>
      </trkpt>
      <trkpt lat="43.32059" lon="5.68648">
        <ele>772.7</ele>
        <time>2019-10-18T09:06:40.000Z</time>
      </trkpt>
      <trkpt lat="43.3207" lon="5.68651">
        <ele>772.4</ele>
        <time>2019-10-18T09:06:47.000Z</time>
      </trkpt>
      <trkpt lat="43.32079" lon="5.68653">
        <ele>772.4</ele>
        <time>2019-10-18T09:06:54.000Z</time>
      </trkpt>
      <trkpt lat="43.32089" lon="5.68655">
        <ele>771.8</ele>
        <time>2019-10-18T09:07:2.000Z</time>
      </trkpt>
      <trkpt lat="43.32098" lon="5.68655">
        <ele>771.5</ele>
        <time>2019-10-18T09:07:9.000Z</time>
      </trkpt>
      <trkpt lat="43.32108" lon="5.68656">
        <ele>772.5</ele>
        <time>2019-10-18T09:07:17.000Z</time>
      </trkpt>
      <trkpt lat="43.32117" lon="5.68658">
        <ele>773.5</ele>
        <time>2019-10-18T09:07:29.000Z</time>
      </trkpt>
      <trkpt lat="43.32126" lon="5.68661">
        <ele>772.5</ele>
        <time>2019-10-18T09:07:38.000Z</time>
      </trkpt>
      <trkpt lat="43.32135" lon="5.68666">
        <ele>770.7</ele>
        <time>2019-10-18T09:07:49.000Z</time>
      </trkpt>
      <trkpt lat="43.32145" lon="5.68668">
        <ele>770</ele>
        <time>2019-10-18T09:08:1.000Z</time>
      </trkpt>
      <trkpt lat="43.32153" lon="5.68672">
        <ele>769.3</ele>
        <time>2019-10-18T09:08:16.000Z</time>
      </trkpt>
      <trkpt lat="43.32162" lon="5.68673">
        <ele>769.7</ele>
        <time>2019-10-18T09:08:36.000Z</time>
      </trkpt>
      <trkpt lat="43.32171" lon="5.68676">
        <ele>769.3</ele>
        <time>2019-10-18T09:08:46.000Z</time>
      </trkpt>
      <trkpt lat="43.3218" lon="5.68677">
        <ele>768.6</ele>
        <time>2019-10-18T09:08:56.000Z</time>
      </trkpt>
      <trkpt lat="43.3219" lon="5.68679">
        <ele>769.1</ele>
        <time>2019-10-18T09:09:9.000Z</time>
      </trkpt>
      <trkpt lat="43.32199" lon="5.68681">
        <ele>769.1</ele>
        <time>2019-10-18T09:09:22.000Z</time>
      </trkpt>
      <trkpt lat="43.32208" lon="5.68686">
        <ele>768.5</ele>
        <time>2019-10-18T09:09:31.000Z</time>
      </trkpt>
      <trkpt lat="43.32217" lon="5.68687">
        <ele>768.4</ele>
        <time>2019-10-18T09:09:44.000Z</time>
      </trkpt>
      <trkpt lat="43.32226" lon="5.68688">
        <ele>767.4</ele>
        <time>2019-10-18T09:09:53.000Z</time>
      </trkpt>
      <trkpt lat="43.32235" lon="5.68692">
        <ele>767.5</ele>
        <time>2019-10-18T09:10:6.000Z</time>
      </trkpt>
      <trkpt lat="43.32244" lon="5.6869">
        <ele>769.9</ele>
        <time>2019-10-18T09:10:24.000Z</time>
      </trkpt>
      <trkpt lat="43.32253" lon="5.68687">
        <ele>772.3</ele>
        <time>2019-10-18T09:10:40.000Z</time>
      </trkpt>
      <trkpt lat="43.32262" lon="5.68689">
        <ele>773.7</ele>
        <time>2019-10-18T09:10:53.000Z</time>
      </trkpt>
      <trkpt lat="43.32272" lon="5.68693">
        <ele>773.6</ele>
        <time>2019-10-18T09:11:11.000Z</time>
      </trkpt>
      <trkpt lat="43.32281" lon="5.68693">
        <ele>773.6</ele>
        <time>2019-10-18T09:11:33.000Z</time>
      </trkpt>
      <trkpt lat="43.3229" lon="5.68696">
        <ele>773.2</ele>
        <time>2019-10-18T09:11:42.000Z</time>
      </trkpt>
      <trkpt lat="43.32299" lon="5.68699">
        <ele>772.4</ele>
        <time>2019-10-18T09:11:51.000Z</time>
      </trkpt>
      <trkpt lat="43.32308" lon="5.68703">
        <ele>772.6</ele>
        <time>2019-10-18T09:12:2.000Z</time>
      </trkpt>
      <trkpt lat="43.32318" lon="5.68703">
        <ele>773.3</ele>
        <time>2019-10-18T09:12:13.000Z</time>
      </trkpt>
      <trkpt lat="43.32327" lon="5.68705">
        <ele>774.4</ele>
        <time>2019-10-18T09:12:24.000Z</time>
      </trkpt>
      <trkpt lat="43.32336" lon="5.6871">
        <ele>775.4</ele>
        <time>2019-10-18T09:13:22.000Z</time>
      </trkpt>
      <trkpt lat="43.32345" lon="5.68712">
        <ele>775.2</ele>
        <time>2019-10-18T09:13:33.000Z</time>
      </trkpt>
      <trkpt lat="43.32354" lon="5.6871">
        <ele>776.4</ele>
        <time>2019-10-18T09:13:43.000Z</time>
      </trkpt>
      <trkpt lat="43.32363" lon="5.68711">
        <ele>776.9</ele>
        <time>2019-10-18T09:13:54.000Z</time>
      </trkpt>
      <trkpt lat="43.32373" lon="5.68711">
        <ele>776.7</ele>
        <time>2019-10-18T09:14:6.000Z</time>
      </trkpt>
      <trkpt lat="43.32382" lon="5.68712">
        <ele>776.5</ele>
        <time>2019-10-18T09:14:18.000Z</time>
      </trkpt>
      <trkpt lat="43.3239" lon="5.68719">
        <ele>775.2</ele>
        <time>2019-10-18T09:14:34.000Z</time>
      </trkpt>
      <trkpt lat="43.32399" lon="5.68724">
        <ele>773.4</ele>
        <time>2019-10-18T09:14:44.000Z</time>
      </trkpt>
      <trkpt lat="43.32408" lon="5.68725">
        <ele>774</ele>
        <time>2019-10-18T09:14:55.000Z</time>
      </trkpt>
      <trkpt lat="43.32417" lon="5.68727">
        <ele>774.5</ele>
        <time>2019-10-18T09:15:7.000Z</time>
      </trkpt>
      <trkpt lat="43.32427" lon="5.68725">
        <ele>777.4</ele>
        <time>2019-10-18T09:15:27.000Z</time>
      </trkpt>
      <trkpt lat="43.32436" lon="5.68724">
        <ele>779.9</ele>
        <time>2019-10-18T09:15:41.000Z</time>
      </trkpt>
      <trkpt lat="43.32445" lon="5.68725">
        <ele>780.1</ele>
        <time>2019-10-18T09:15:52.000Z</time>
      </trkpt>
      <trkpt lat="43.32455" lon="5.68724">
        <ele>780.4</ele>
        <time>2019-10-18T09:16:6.000Z</time>
      </trkpt>
      <trkpt lat="43.32464" lon="5.68725">
        <ele>779.8</ele>
        <time>2019-10-18T09:16:36.000Z</time>
      </trkpt>
      <trkpt lat="43.32473" lon="5.6873">
        <ele>778.7</ele>
        <time>2019-10-18T09:16:45.000Z</time>
      </trkpt>
      <trkpt lat="43.32482" lon="5.68736">
        <ele>777.5</ele>
        <time>2019-10-18T09:16:54.000Z</time>
      </trkpt>
      <trkpt lat="43.3249" lon="5.68742">
        <ele>775.5</ele>
        <time>2019-10-18T09:17:5.000Z</time>
      </trkpt>
      <trkpt lat="43.32499" lon="5.68746">
        <ele>775.7</ele>
        <time>2019-10-18T09:17:16.000Z</time>
      </trkpt>
      <trkpt lat="43.32508" lon="5.6875">
        <ele>776.5</ele>
        <time>2019-10-18T09:17:29.000Z</time>
      </trkpt>
      <trkpt lat="43.32516" lon="5.68755">
        <ele>777.1</ele>
        <time>2019-10-18T09:17:41.000Z</time>
      </trkpt>
      <trkpt lat="43.32525" lon="5.68756">
        <ele>779.6</ele>
        <time>2019-10-18T09:17:58.000Z</time>
      </trkpt>
      <trkpt lat="43.32534" lon="5.68754">
        <ele>782.4</ele>
        <time>2019-10-18T09:18:14.000Z</time>
      </trkpt>
      <trkpt lat="43.32543" lon="5.68749">
        <ele>784.4</ele>
        <time>2019-10-18T09:18:29.000Z</time>
      </trkpt>
      <trkpt lat="43.32552" lon="5.68747">
        <ele>786.2</ele>
        <time>2019-10-18T09:18:42.000Z</time>
      </trkpt>
      <trkpt lat="43.32561" lon="5.68751">
        <ele>784</ele>
        <time>2019-10-18T09:19:1.000Z</time>
      </trkpt>
      <trkpt lat="43.3257" lon="5.68754">
        <ele>781.4</ele>
        <time>2019-10-18T09:19:20.000Z</time>
      </trkpt>
      <trkpt lat="43.32579" lon="5.68752">
        <ele>780</ele>
        <time>2019-10-18T09:19:31.000Z</time>
      </trkpt>
      <trkpt lat="43.32588" lon="5.68752">
        <ele>779.6</ele>
        <time>2019-10-18T09:19:43.000Z</time>
      </trkpt>
      <trkpt lat="43.32597" lon="5.68751">
        <ele>779.3</ele>
        <time>2019-10-18T09:19:59.000Z</time>
      </trkpt>
      <trkpt lat="43.32607" lon="5.68752">
        <ele>779.1</ele>
        <time>2019-10-18T09:20:9.000Z</time>
      </trkpt>
      <trkpt lat="43.32616" lon="5.68753">
        <ele>778.3</ele>
        <time>2019-10-18T09:20:16.000Z</time>
      </trkpt>
      <trkpt lat="43.32625" lon="5.68754">
        <ele>777.7</ele>
        <time>2019-10-18T09:20:26.000Z</time>
      </trkpt>
      <trkpt lat="43.32635" lon="5.68754">
        <ele>778.7</ele>
        <time>2019-10-18T09:20:37.000Z</time>
      </trkpt>
      <trkpt lat="43.32645" lon="5.68754">
        <ele>778.8</ele>
        <time>2019-10-18T09:20:48.000Z</time>
      </trkpt>
      <trkpt lat="43.32653" lon="5.68747">
        <ele>779.3</ele>
        <time>2019-10-18T09:21:15.000Z</time>
      </trkpt>
      <trkpt lat="43.32647" lon="5.68738">
        <ele>783.9</ele>
        <time>2019-10-18T09:23:42.000Z</time>
      </trkpt>
      <trkpt lat="43.3265" lon="5.68725">
        <ele>785.7</ele>
        <time>2019-10-18T09:23:52.000Z</time>
      </trkpt>
      <trkpt lat="43.32645" lon="5.68735">
        <ele>785.7</ele>
        <time>2019-10-18T09:24:15.000Z</time>
      </trkpt>
      <trkpt lat="43.32636" lon="5.68739">
        <ele>784.8</ele>
        <time>2019-10-18T09:24:34.000Z</time>
      </trkpt>
      <trkpt lat="43.32627" lon="5.6874">
        <ele>785.4</ele>
        <time>2019-10-18T09:25:1.000Z</time>
      </trkpt>
      <trkpt lat="43.32617" lon="5.6874">
        <ele>786.4</ele>
        <time>2019-10-18T09:25:12.000Z</time>
      </trkpt>
      <trkpt lat="43.32608" lon="5.68736">
        <ele>788.6</ele>
        <time>2019-10-18T09:25:25.000Z</time>
      </trkpt>
      <trkpt lat="43.32599" lon="5.68731">
        <ele>791.4</ele>
        <time>2019-10-18T09:25:37.000Z</time>
      </trkpt>
      <trkpt lat="43.32591" lon="5.68726">
        <ele>795</ele>
        <time>2019-10-18T09:25:51.000Z</time>
      </trkpt>
      <trkpt lat="43.32582" lon="5.68725">
        <ele>796.3</ele>
        <time>2019-10-18T09:26:1.000Z</time>
      </trkpt>
      <trkpt lat="43.32573" lon="5.6872">
        <ele>798.2</ele>
        <time>2019-10-18T09:26:13.000Z</time>
      </trkpt>
      <trkpt lat="43.32566" lon="5.68711">
        <ele>800.8</ele>
        <time>2019-10-18T09:26:26.000Z</time>
      </trkpt>
      <trkpt lat="43.3256" lon="5.68702">
        <ele>802.9</ele>
        <time>2019-10-18T09:26:39.000Z</time>
      </trkpt>
      <trkpt lat="43.32553" lon="5.68693">
        <ele>805.4</ele>
        <time>2019-10-18T09:26:55.000Z</time>
      </trkpt>
      <trkpt lat="43.32545" lon="5.68686">
        <ele>807.6</ele>
        <time>2019-10-18T09:27:10.000Z</time>
      </trkpt>
      <trkpt lat="43.3254" lon="5.68675">
        <ele>809.4</ele>
        <time>2019-10-18T09:27:32.000Z</time>
      </trkpt>
      <trkpt lat="43.32531" lon="5.6867">
        <ele>812.6</ele>
        <time>2019-10-18T09:27:54.000Z</time>
      </trkpt>
      <trkpt lat="43.32533" lon="5.68657">
        <ele>816.9</ele>
        <time>2019-10-18T09:28:25.000Z</time>
      </trkpt>
      <trkpt lat="43.3253" lon="5.68644">
        <ele>819.5</ele>
        <time>2019-10-18T09:29:14.000Z</time>
      </trkpt>
      <trkpt lat="43.3253" lon="5.68632">
        <ele>822.4</ele>
        <time>2019-10-18T09:29:51.000Z</time>
      </trkpt>
      <trkpt lat="43.32522" lon="5.68636">
        <ele>821.2</ele>
        <time>2019-10-18T09:31:20.000Z</time>
      </trkpt>
      <trkpt lat="43.32514" lon="5.68643">
        <ele>819.7</ele>
        <time>2019-10-18T09:31:33.000Z</time>
      </trkpt>
      <trkpt lat="43.32505" lon="5.68648">
        <ele>818.7</ele>
        <time>2019-10-18T09:31:44.000Z</time>
      </trkpt>
      <trkpt lat="43.32496" lon="5.68645">
        <ele>819.4</ele>
        <time>2019-10-18T09:31:55.000Z</time>
      </trkpt>
      <trkpt lat="43.32486" lon="5.68643">
        <ele>819.2</ele>
        <time>2019-10-18T09:32:10.000Z</time>
      </trkpt>
      <trkpt lat="43.32477" lon="5.68639">
        <ele>819.7</ele>
        <time>2019-10-18T09:32:19.000Z</time>
      </trkpt>
      <trkpt lat="43.32468" lon="5.68635">
        <ele>819.9</ele>
        <time>2019-10-18T09:32:28.000Z</time>
      </trkpt>
      <trkpt lat="43.32459" lon="5.68629">
        <ele>820.3</ele>
        <time>2019-10-18T09:32:37.000Z</time>
      </trkpt>
      <trkpt lat="43.32451" lon="5.68623">
        <ele>820.5</ele>
        <time>2019-10-18T09:32:46.000Z</time>
      </trkpt>
      <trkpt lat="43.32442" lon="5.68621">
        <ele>820.9</ele>
        <time>2019-10-18T09:32:56.000Z</time>
      </trkpt>
      <trkpt lat="43.32433" lon="5.68619">
        <ele>821.5</ele>
        <time>2019-10-18T09:33:6.000Z</time>
      </trkpt>
      <trkpt lat="43.32424" lon="5.68615">
        <ele>821.8</ele>
        <time>2019-10-18T09:33:43.000Z</time>
      </trkpt>
      <trkpt lat="43.32414" lon="5.68613">
        <ele>822.1</ele>
        <time>2019-10-18T09:33:53.000Z</time>
      </trkpt>
      <trkpt lat="43.32404" lon="5.68613">
        <ele>822.3</ele>
        <time>2019-10-18T09:34:4.000Z</time>
      </trkpt>
      <trkpt lat="43.32394" lon="5.68613">
        <ele>822.5</ele>
        <time>2019-10-18T09:34:13.000Z</time>
      </trkpt>
      <trkpt lat="43.32385" lon="5.68609">
        <ele>823.4</ele>
        <time>2019-10-18T09:34:22.000Z</time>
      </trkpt>
      <trkpt lat="43.32376" lon="5.68604">
        <ele>823.6</ele>
        <time>2019-10-18T09:34:40.000Z</time>
      </trkpt>
      <trkpt lat="43.32367" lon="5.68605">
        <ele>824.4</ele>
        <time>2019-10-18T09:34:51.000Z</time>
      </trkpt>
      <trkpt lat="43.32357" lon="5.68604">
        <ele>825.3</ele>
        <time>2019-10-18T09:35:3.000Z</time>
      </trkpt>
      <trkpt lat="43.32348" lon="5.68602">
        <ele>826.1</ele>
        <time>2019-10-18T09:35:12.000Z</time>
      </trkpt>
      <trkpt lat="43.3234" lon="5.68609">
        <ele>827</ele>
        <time>2019-10-18T09:35:23.000Z</time>
      </trkpt>
      <trkpt lat="43.32334" lon="5.6862">
        <ele>827.7</ele>
        <time>2019-10-18T09:36:43.000Z</time>
      </trkpt>
      <trkpt lat="43.32325" lon="5.68626">
        <ele>827.9</ele>
        <time>2019-10-18T09:36:56.000Z</time>
      </trkpt>
      <trkpt lat="43.32316" lon="5.68625">
        <ele>827.9</ele>
        <time>2019-10-18T09:37:9.000Z</time>
      </trkpt>
      <trkpt lat="43.32307" lon="5.68622">
        <ele>827.4</ele>
        <time>2019-10-18T09:37:21.000Z</time>
      </trkpt>
      <trkpt lat="43.32297" lon="5.68624">
        <ele>826.6</ele>
        <time>2019-10-18T09:37:32.000Z</time>
      </trkpt>
      <trkpt lat="43.32289" lon="5.68629">
        <ele>826</ele>
        <time>2019-10-18T09:37:42.000Z</time>
      </trkpt>
      <trkpt lat="43.32282" lon="5.68638">
        <ele>825.9</ele>
        <time>2019-10-18T09:37:53.000Z</time>
      </trkpt>
      <trkpt lat="43.3228" lon="5.68651">
        <ele>825.9</ele>
        <time>2019-10-18T09:38:2.000Z</time>
      </trkpt>
      <trkpt lat="43.32272" lon="5.68655">
        <ele>825.5</ele>
        <time>2019-10-18T09:38:18.000Z</time>
      </trkpt>
      <trkpt lat="43.32267" lon="5.68642">
        <ele>825.8</ele>
        <time>2019-10-18T09:38:51.000Z</time>
      </trkpt>
      <trkpt lat="43.32258" lon="5.68643">
        <ele>825.7</ele>
        <time>2019-10-18T09:39:3.000Z</time>
      </trkpt>
      <trkpt lat="43.32248" lon="5.68643">
        <ele>825.5</ele>
        <time>2019-10-18T09:39:14.000Z</time>
      </trkpt>
      <trkpt lat="43.32239" lon="5.68641">
        <ele>824.9</ele>
        <time>2019-10-18T09:39:23.000Z</time>
      </trkpt>
      <trkpt lat="43.32229" lon="5.68636">
        <ele>824.9</ele>
        <time>2019-10-18T09:39:31.000Z</time>
      </trkpt>
      <trkpt lat="43.3222" lon="5.68633">
        <ele>825</ele>
        <time>2019-10-18T09:39:44.000Z</time>
      </trkpt>
      <trkpt lat="43.32213" lon="5.68625">
        <ele>826</ele>
        <time>2019-10-18T09:40:39.000Z</time>
      </trkpt>
      <trkpt lat="43.32204" lon="5.68619">
        <ele>826.1</ele>
        <time>2019-10-18T09:40:51.000Z</time>
      </trkpt>
      <trkpt lat="43.32195" lon="5.68616">
        <ele>826.5</ele>
        <time>2019-10-18T09:41:3.000Z</time>
      </trkpt>
      <trkpt lat="43.32186" lon="5.68613">
        <ele>826.9</ele>
        <time>2019-10-18T09:41:14.000Z</time>
      </trkpt>
      <trkpt lat="43.32177" lon="5.68608">
        <ele>828.3</ele>
        <time>2019-10-18T09:41:31.000Z</time>
      </trkpt>
      <trkpt lat="43.32169" lon="5.68604">
        <ele>828.6</ele>
        <time>2019-10-18T09:41:42.000Z</time>
      </trkpt>
      <trkpt lat="43.32159" lon="5.68601">
        <ele>829.8</ele>
        <time>2019-10-18T09:41:59.000Z</time>
      </trkpt>
      <trkpt lat="43.3215" lon="5.68599">
        <ele>830.5</ele>
        <time>2019-10-18T09:42:11.000Z</time>
      </trkpt>
      <trkpt lat="43.32141" lon="5.68592">
        <ele>831.3</ele>
        <time>2019-10-18T09:42:23.000Z</time>
      </trkpt>
      <trkpt lat="43.32133" lon="5.68584">
        <ele>831.4</ele>
        <time>2019-10-18T09:42:38.000Z</time>
      </trkpt>
      <trkpt lat="43.32128" lon="5.68575">
        <ele>831.2</ele>
        <time>2019-10-18T09:42:52.000Z</time>
      </trkpt>
      <trkpt lat="43.32123" lon="5.68564">
        <ele>831.3</ele>
        <time>2019-10-18T09:43:4.000Z</time>
      </trkpt>
      <trkpt lat="43.32119" lon="5.68552">
        <ele>831.9</ele>
        <time>2019-10-18T09:43:15.000Z</time>
      </trkpt>
      <trkpt lat="43.32115" lon="5.68541">
        <ele>832.2</ele>
        <time>2019-10-18T09:43:27.000Z</time>
      </trkpt>
      <trkpt lat="43.32111" lon="5.68529">
        <ele>832.5</ele>
        <time>2019-10-18T09:43:41.000Z</time>
      </trkpt>
      <trkpt lat="43.32107" lon="5.68517">
        <ele>832.8</ele>
        <time>2019-10-18T09:43:53.000Z</time>
      </trkpt>
      <trkpt lat="43.32101" lon="5.68507">
        <ele>833.3</ele>
        <time>2019-10-18T09:44:4.000Z</time>
      </trkpt>
      <trkpt lat="43.32096" lon="5.68496">
        <ele>833.1</ele>
        <time>2019-10-18T09:44:16.000Z</time>
      </trkpt>
      <trkpt lat="43.3209" lon="5.68486">
        <ele>833.6</ele>
        <time>2019-10-18T09:44:28.000Z</time>
      </trkpt>
      <trkpt lat="43.32083" lon="5.68476">
        <ele>833.7</ele>
        <time>2019-10-18T09:44:39.000Z</time>
      </trkpt>
      <trkpt lat="43.32075" lon="5.6847">
        <ele>834.1</ele>
        <time>2019-10-18T09:44:55.000Z</time>
      </trkpt>
      <trkpt lat="43.32067" lon="5.68463">
        <ele>834.4</ele>
        <time>2019-10-18T09:45:7.000Z</time>
      </trkpt>
      <trkpt lat="43.32059" lon="5.68457">
        <ele>834.5</ele>
        <time>2019-10-18T09:45:18.000Z</time>
      </trkpt>
      <trkpt lat="43.32053" lon="5.68447">
        <ele>834.8</ele>
        <time>2019-10-18T09:45:29.000Z</time>
      </trkpt>
      <trkpt lat="43.32046" lon="5.6844">
        <ele>835.2</ele>
        <time>2019-10-18T09:45:41.000Z</time>
      </trkpt>
      <trkpt lat="43.32037" lon="5.68435">
        <ele>835.4</ele>
        <time>2019-10-18T09:45:51.000Z</time>
      </trkpt>
      <trkpt lat="43.32029" lon="5.68429">
        <ele>835.5</ele>
        <time>2019-10-18T09:46:1.000Z</time>
      </trkpt>
      <trkpt lat="43.32025" lon="5.68417">
        <ele>835.5</ele>
        <time>2019-10-18T09:46:14.000Z</time>
      </trkpt>
      <trkpt lat="43.32017" lon="5.68411">
        <ele>836.3</ele>
        <time>2019-10-18T09:46:30.000Z</time>
      </trkpt>
      <trkpt lat="43.32011" lon="5.68402">
        <ele>836.6</ele>
        <time>2019-10-18T09:46:42.000Z</time>
      </trkpt>
      <trkpt lat="43.32003" lon="5.68395">
        <ele>836.6</ele>
        <time>2019-10-18T09:46:53.000Z</time>
      </trkpt>
      <trkpt lat="43.31996" lon="5.68387">
        <ele>836.4</ele>
        <time>2019-10-18T09:47:5.000Z</time>
      </trkpt>
      <trkpt lat="43.31987" lon="5.68388">
        <ele>836.2</ele>
        <time>2019-10-18T09:47:16.000Z</time>
      </trkpt>
      <trkpt lat="43.31978" lon="5.68385">
        <ele>835.9</ele>
        <time>2019-10-18T09:47:28.000Z</time>
      </trkpt>
      <trkpt lat="43.3197" lon="5.68393">
        <ele>836.8</ele>
        <time>2019-10-18T09:47:43.000Z</time>
      </trkpt>
      <trkpt lat="43.31961" lon="5.68393">
        <ele>837.9</ele>
        <time>2019-10-18T09:47:56.000Z</time>
      </trkpt>
      <trkpt lat="43.31953" lon="5.68386">
        <ele>838.9</ele>
        <time>2019-10-18T09:48:8.000Z</time>
      </trkpt>
      <trkpt lat="43.31945" lon="5.68379">
        <ele>839.9</ele>
        <time>2019-10-18T09:48:21.000Z</time>
      </trkpt>
      <trkpt lat="43.31937" lon="5.68372">
        <ele>840.5</ele>
        <time>2019-10-18T09:48:34.000Z</time>
      </trkpt>
      <trkpt lat="43.31927" lon="5.68374">
        <ele>842.2</ele>
        <time>2019-10-18T09:48:49.000Z</time>
      </trkpt>
      <trkpt lat="43.31918" lon="5.68375">
        <ele>841.8</ele>
        <time>2019-10-18T09:49:4.000Z</time>
      </trkpt>
      <trkpt lat="43.31909" lon="5.68372">
        <ele>842.9</ele>
        <time>2019-10-18T09:49:16.000Z</time>
      </trkpt>
      <trkpt lat="43.319" lon="5.68369">
        <ele>844.6</ele>
        <time>2019-10-18T09:49:33.000Z</time>
      </trkpt>
      <trkpt lat="43.3189" lon="5.68366">
        <ele>846</ele>
        <time>2019-10-18T09:49:49.000Z</time>
      </trkpt>
      <trkpt lat="43.31882" lon="5.68361">
        <ele>846.7</ele>
        <time>2019-10-18T09:50:0.000Z</time>
      </trkpt>
      <trkpt lat="43.31878" lon="5.6835">
        <ele>848.7</ele>
        <time>2019-10-18T09:50:38.000Z</time>
      </trkpt>
      <trkpt lat="43.31884" lon="5.6834">
        <ele>847.6</ele>
        <time>2019-10-18T09:50:52.000Z</time>
      </trkpt>
      <trkpt lat="43.31889" lon="5.68329">
        <ele>845.8</ele>
        <time>2019-10-18T09:51:5.000Z</time>
      </trkpt>
      <trkpt lat="43.31893" lon="5.68318">
        <ele>845.5</ele>
        <time>2019-10-18T09:51:18.000Z</time>
      </trkpt>
      <trkpt lat="43.31898" lon="5.68308">
        <ele>845.9</ele>
        <time>2019-10-18T09:51:31.000Z</time>
      </trkpt>
      <trkpt lat="43.31902" lon="5.68296">
        <ele>845.7</ele>
        <time>2019-10-18T09:51:43.000Z</time>
      </trkpt>
      <trkpt lat="43.31902" lon="5.68283">
        <ele>845.7</ele>
        <time>2019-10-18T09:51:59.000Z</time>
      </trkpt>
      <trkpt lat="43.31903" lon="5.68271">
        <ele>846.4</ele>
        <time>2019-10-18T09:52:15.000Z</time>
      </trkpt>
      <trkpt lat="43.31903" lon="5.68258">
        <ele>847</ele>
        <time>2019-10-18T09:52:25.000Z</time>
      </trkpt>
      <trkpt lat="43.31906" lon="5.68246">
        <ele>846.9</ele>
        <time>2019-10-18T09:52:36.000Z</time>
      </trkpt>
      <trkpt lat="43.31905" lon="5.68233">
        <ele>846.3</ele>
        <time>2019-10-18T09:52:47.000Z</time>
      </trkpt>
      <trkpt lat="43.31914" lon="5.68228">
        <ele>846.2</ele>
        <time>2019-10-18T09:53:0.000Z</time>
      </trkpt>
      <trkpt lat="43.31919" lon="5.68216">
        <ele>845.8</ele>
        <time>2019-10-18T09:53:11.000Z</time>
      </trkpt>
      <trkpt lat="43.31913" lon="5.68205">
        <ele>846</ele>
        <time>2019-10-18T09:56:12.000Z</time>
      </trkpt>
      <trkpt lat="43.31905" lon="5.682">
        <ele>846.4</ele>
        <time>2019-10-18T09:56:25.000Z</time>
      </trkpt>
      <trkpt lat="43.31903" lon="5.68187">
        <ele>847.5</ele>
        <time>2019-10-18T09:56:36.000Z</time>
      </trkpt>
      <trkpt lat="43.31904" lon="5.68175">
        <ele>847.3</ele>
        <time>2019-10-18T09:56:45.000Z</time>
      </trkpt>
      <trkpt lat="43.31908" lon="5.68162">
        <ele>847.4</ele>
        <time>2019-10-18T09:56:56.000Z</time>
      </trkpt>
      <trkpt lat="43.31912" lon="5.68151">
        <ele>847.5</ele>
        <time>2019-10-18T09:57:5.000Z</time>
      </trkpt>
      <trkpt lat="43.31914" lon="5.68139">
        <ele>847.7</ele>
        <time>2019-10-18T09:57:16.000Z</time>
      </trkpt>
      <trkpt lat="43.31915" lon="5.68126">
        <ele>847.6</ele>
        <time>2019-10-18T09:57:26.000Z</time>
      </trkpt>
      <trkpt lat="43.31918" lon="5.68114">
        <ele>846.8</ele>
        <time>2019-10-18T09:57:36.000Z</time>
      </trkpt>
      <trkpt lat="43.3192" lon="5.68101">
        <ele>847.5</ele>
        <time>2019-10-18T09:57:46.000Z</time>
      </trkpt>
      <trkpt lat="43.31923" lon="5.68089">
        <ele>847.4</ele>
        <time>2019-10-18T09:57:55.000Z</time>
      </trkpt>
      <trkpt lat="43.31928" lon="5.68077">
        <ele>847.3</ele>
        <time>2019-10-18T09:58:5.000Z</time>
      </trkpt>
      <trkpt lat="43.31933" lon="5.68066">
        <ele>847.6</ele>
        <time>2019-10-18T09:58:18.000Z</time>
      </trkpt>
      <trkpt lat="43.31936" lon="5.68054">
        <ele>848.1</ele>
        <time>2019-10-18T09:58:28.000Z</time>
      </trkpt>
      <trkpt lat="43.31931" lon="5.68042">
        <ele>848.7</ele>
        <time>2019-10-18T09:58:41.000Z</time>
      </trkpt>
      <trkpt lat="43.3193" lon="5.68029">
        <ele>849.3</ele>
        <time>2019-10-18T09:58:53.000Z</time>
      </trkpt>
      <trkpt lat="43.31932" lon="5.68016">
        <ele>848.7</ele>
        <time>2019-10-18T09:59:4.000Z</time>
      </trkpt>
      <trkpt lat="43.31931" lon="5.68003">
        <ele>848.7</ele>
        <time>2019-10-18T09:59:14.000Z</time>
      </trkpt>
      <trkpt lat="43.31931" lon="5.67991">
        <ele>848.6</ele>
        <time>2019-10-18T09:59:24.000Z</time>
      </trkpt>
      <trkpt lat="43.31933" lon="5.67977">
        <ele>849.3</ele>
        <time>2019-10-18T09:59:34.000Z</time>
      </trkpt>
      <trkpt lat="43.31937" lon="5.67965">
        <ele>849.6</ele>
        <time>2019-10-18T09:59:43.000Z</time>
      </trkpt>
      <trkpt lat="43.31938" lon="5.67952">
        <ele>849.6</ele>
        <time>2019-10-18T09:59:56.000Z</time>
      </trkpt>
      <trkpt lat="43.3194" lon="5.67939">
        <ele>849.8</ele>
        <time>2019-10-18T10:00:7.000Z</time>
      </trkpt>
      <trkpt lat="43.31938" lon="5.67927">
        <ele>850.3</ele>
        <time>2019-10-18T10:00:18.000Z</time>
      </trkpt>
      <trkpt lat="43.31939" lon="5.67913">
        <ele>850.2</ele>
        <time>2019-10-18T10:00:29.000Z</time>
      </trkpt>
      <trkpt lat="43.31944" lon="5.67903">
        <ele>850.5</ele>
        <time>2019-10-18T10:00:40.000Z</time>
      </trkpt>
      <trkpt lat="43.31941" lon="5.67891">
        <ele>851</ele>
        <time>2019-10-18T10:00:50.000Z</time>
      </trkpt>
      <trkpt lat="43.3194" lon="5.67878">
        <ele>850.7</ele>
        <time>2019-10-18T10:01:0.000Z</time>
      </trkpt>
      <trkpt lat="43.31941" lon="5.67864">
        <ele>850.8</ele>
        <time>2019-10-18T10:01:11.000Z</time>
      </trkpt>
      <trkpt lat="43.31939" lon="5.67852">
        <ele>852</ele>
        <time>2019-10-18T10:01:21.000Z</time>
      </trkpt>
      <trkpt lat="43.31936" lon="5.6784">
        <ele>852.7</ele>
        <time>2019-10-18T10:01:33.000Z</time>
      </trkpt>
      <trkpt lat="43.31933" lon="5.67828">
        <ele>853.4</ele>
        <time>2019-10-18T10:01:43.000Z</time>
      </trkpt>
      <trkpt lat="43.31932" lon="5.67816">
        <ele>854.1</ele>
        <time>2019-10-18T10:01:55.000Z</time>
      </trkpt>
      <trkpt lat="43.31933" lon="5.67803">
        <ele>855.2</ele>
        <time>2019-10-18T10:02:8.000Z</time>
      </trkpt>
      <trkpt lat="43.31932" lon="5.6779">
        <ele>856.3</ele>
        <time>2019-10-18T10:02:21.000Z</time>
      </trkpt>
      <trkpt lat="43.31932" lon="5.67777">
        <ele>858.2</ele>
        <time>2019-10-18T10:02:35.000Z</time>
      </trkpt>
      <trkpt lat="43.31931" lon="5.67763">
        <ele>859.7</ele>
        <time>2019-10-18T10:02:52.000Z</time>
      </trkpt>
      <trkpt lat="43.31929" lon="5.67751">
        <ele>861.4</ele>
        <time>2019-10-18T10:03:9.000Z</time>
      </trkpt>
      <trkpt lat="43.31931" lon="5.67738">
        <ele>863.1</ele>
        <time>2019-10-18T10:03:22.000Z</time>
      </trkpt>
      <trkpt lat="43.31934" lon="5.67726">
        <ele>864.8</ele>
        <time>2019-10-18T10:03:37.000Z</time>
      </trkpt>
      <trkpt lat="43.31934" lon="5.67714">
        <ele>866.4</ele>
        <time>2019-10-18T10:03:53.000Z</time>
      </trkpt>
      <trkpt lat="43.31936" lon="5.67702">
        <ele>868.4</ele>
        <time>2019-10-18T10:04:6.000Z</time>
      </trkpt>
      <trkpt lat="43.31938" lon="5.67689">
        <ele>870.6</ele>
        <time>2019-10-18T10:04:23.000Z</time>
      </trkpt>
      <trkpt lat="43.31935" lon="5.67677">
        <ele>872.9</ele>
        <time>2019-10-18T10:04:50.000Z</time>
      </trkpt>
      <trkpt lat="43.31935" lon="5.67664">
        <ele>876.9</ele>
        <time>2019-10-18T10:05:12.000Z</time>
      </trkpt>
      <trkpt lat="43.31935" lon="5.67652">
        <ele>879.5</ele>
        <time>2019-10-18T10:05:32.000Z</time>
      </trkpt>
      <trkpt lat="43.31935" lon="5.67639">
        <ele>880.9</ele>
        <time>2019-10-18T10:05:48.000Z</time>
      </trkpt>
      <trkpt lat="43.31934" lon="5.67626">
        <ele>884.2</ele>
        <time>2019-10-18T10:06:8.000Z</time>
      </trkpt>
      <trkpt lat="43.31936" lon="5.67614">
        <ele>885.9</ele>
        <time>2019-10-18T10:06:20.000Z</time>
      </trkpt>
      <trkpt lat="43.31939" lon="5.67602">
        <ele>888</ele>
        <time>2019-10-18T10:06:41.000Z</time>
      </trkpt>
      <trkpt lat="43.31933" lon="5.67591">
        <ele>889.4</ele>
        <time>2019-10-18T10:06:56.000Z</time>
      </trkpt>
      <trkpt lat="43.31934" lon="5.67578">
        <ele>891.1</ele>
        <time>2019-10-18T10:07:8.000Z</time>
      </trkpt>
      <trkpt lat="43.31936" lon="5.67566">
        <ele>892.7</ele>
        <time>2019-10-18T10:07:23.000Z</time>
      </trkpt>
      <trkpt lat="43.31938" lon="5.67553">
        <ele>894.3</ele>
        <time>2019-10-18T10:07:36.000Z</time>
      </trkpt>
      <trkpt lat="43.31938" lon="5.67541">
        <ele>895.9</ele>
        <time>2019-10-18T10:07:51.000Z</time>
      </trkpt>
      <trkpt lat="43.31942" lon="5.67529">
        <ele>898.2</ele>
        <time>2019-10-18T10:08:6.000Z</time>
      </trkpt>
      <trkpt lat="43.31942" lon="5.67516">
        <ele>900.6</ele>
        <time>2019-10-18T10:08:22.000Z</time>
      </trkpt>
      <trkpt lat="43.31947" lon="5.67506">
        <ele>901.2</ele>
        <time>2019-10-18T10:08:37.000Z</time>
      </trkpt>
      <trkpt lat="43.31951" lon="5.67495">
        <ele>906.4</ele>
        <time>2019-10-18T10:09:2.000Z</time>
      </trkpt>
      <trkpt lat="43.31957" lon="5.67486">
        <ele>909.7</ele>
        <time>2019-10-18T10:09:21.000Z</time>
      </trkpt>
      <trkpt lat="43.31965" lon="5.6748">
        <ele>911</ele>
        <time>2019-10-18T10:09:33.000Z</time>
      </trkpt>
      <trkpt lat="43.31964" lon="5.67467">
        <ele>913.1</ele>
        <time>2019-10-18T10:10:4.000Z</time>
      </trkpt>
      <trkpt lat="43.31956" lon="5.67463">
        <ele>913</ele>
        <time>2019-10-18T10:10:20.000Z</time>
      </trkpt>
      <trkpt lat="43.31952" lon="5.67452">
        <ele>912.5</ele>
        <time>2019-10-18T10:10:41.000Z</time>
      </trkpt>
      <trkpt lat="43.31954" lon="5.6744">
        <ele>913.8</ele>
        <time>2019-10-18T10:10:55.000Z</time>
      </trkpt>
      <trkpt lat="43.31952" lon="5.67427">
        <ele>914.5</ele>
        <time>2019-10-18T10:11:7.000Z</time>
      </trkpt>
      <trkpt lat="43.31948" lon="5.67416">
        <ele>914.9</ele>
        <time>2019-10-18T10:11:20.000Z</time>
      </trkpt>
      <trkpt lat="43.31944" lon="5.67405">
        <ele>914.9</ele>
        <time>2019-10-18T10:11:34.000Z</time>
      </trkpt>
      <trkpt lat="43.31939" lon="5.67393">
        <ele>913.5</ele>
        <time>2019-10-18T10:11:47.000Z</time>
      </trkpt>
      <trkpt lat="43.31934" lon="5.67382">
        <ele>912.9</ele>
        <time>2019-10-18T10:12:0.000Z</time>
      </trkpt>
      <trkpt lat="43.31932" lon="5.67369">
        <ele>913.2</ele>
        <time>2019-10-18T10:12:13.000Z</time>
      </trkpt>
      <trkpt lat="43.31932" lon="5.67357">
        <ele>913.1</ele>
        <time>2019-10-18T10:12:24.000Z</time>
      </trkpt>
      <trkpt lat="43.31927" lon="5.67345">
        <ele>913</ele>
        <time>2019-10-18T10:12:35.000Z</time>
      </trkpt>
      <trkpt lat="43.31923" lon="5.67334">
        <ele>912.5</ele>
        <time>2019-10-18T10:12:50.000Z</time>
      </trkpt>
      <trkpt lat="43.31919" lon="5.67323">
        <ele>912.3</ele>
        <time>2019-10-18T10:13:3.000Z</time>
      </trkpt>
      <trkpt lat="43.31916" lon="5.67311">
        <ele>912.5</ele>
        <time>2019-10-18T10:13:17.000Z</time>
      </trkpt>
      <trkpt lat="43.31913" lon="5.67299">
        <ele>912.3</ele>
        <time>2019-10-18T10:13:27.000Z</time>
      </trkpt>
      <trkpt lat="43.3191" lon="5.67287">
        <ele>912.2</ele>
        <time>2019-10-18T10:13:38.000Z</time>
      </trkpt>
      <trkpt lat="43.31907" lon="5.67275">
        <ele>912.8</ele>
        <time>2019-10-18T10:13:49.000Z</time>
      </trkpt>
      <trkpt lat="43.31905" lon="5.67262">
        <ele>913.7</ele>
        <time>2019-10-18T10:14:0.000Z</time>
      </trkpt>
      <trkpt lat="43.31903" lon="5.6725">
        <ele>913.5</ele>
        <time>2019-10-18T10:14:11.000Z</time>
      </trkpt>
      <trkpt lat="43.31901" lon="5.67237">
        <ele>913.7</ele>
        <time>2019-10-18T10:14:22.000Z</time>
      </trkpt>
      <trkpt lat="43.319" lon="5.67223">
        <ele>915.6</ele>
        <time>2019-10-18T10:14:35.000Z</time>
      </trkpt>
      <trkpt lat="43.31897" lon="5.67211">
        <ele>916.6</ele>
        <time>2019-10-18T10:14:46.000Z</time>
      </trkpt>
      <trkpt lat="43.31901" lon="5.672">
        <ele>918.9</ele>
        <time>2019-10-18T10:14:59.000Z</time>
      </trkpt>
      <trkpt lat="43.31894" lon="5.67192">
        <ele>918.6</ele>
        <time>2019-10-18T10:15:16.000Z</time>
      </trkpt>
      <trkpt lat="43.3189" lon="5.6718">
        <ele>920.5</ele>
        <time>2019-10-18T10:15:26.000Z</time>
      </trkpt>
      <trkpt lat="43.31891" lon="5.67166">
        <ele>921.5</ele>
        <time>2019-10-18T10:15:36.000Z</time>
      </trkpt>
      <trkpt lat="43.31891" lon="5.67154">
        <ele>922.7</ele>
        <time>2019-10-18T10:15:46.000Z</time>
      </trkpt>
      <trkpt lat="43.3189" lon="5.67141">
        <ele>922.7</ele>
        <time>2019-10-18T10:15:56.000Z</time>
      </trkpt>
      <trkpt lat="43.31888" lon="5.67128">
        <ele>923.1</ele>
        <time>2019-10-18T10:16:6.000Z</time>
      </trkpt>
      <trkpt lat="43.3189" lon="5.67116">
        <ele>923.6</ele>
        <time>2019-10-18T10:16:15.000Z</time>
      </trkpt>
      <trkpt lat="43.31889" lon="5.67103">
        <ele>923.4</ele>
        <time>2019-10-18T10:16:25.000Z</time>
      </trkpt>
      <trkpt lat="43.31891" lon="5.6709">
        <ele>924.4</ele>
        <time>2019-10-18T10:16:33.000Z</time>
      </trkpt>
      <trkpt lat="43.31893" lon="5.67077">
        <ele>924.6</ele>
        <time>2019-10-18T10:16:43.000Z</time>
      </trkpt>
      <trkpt lat="43.31894" lon="5.67064">
        <ele>925.1</ele>
        <time>2019-10-18T10:16:55.000Z</time>
      </trkpt>
      <trkpt lat="43.31896" lon="5.67052">
        <ele>925.2</ele>
        <time>2019-10-18T10:17:8.000Z</time>
      </trkpt>
      <trkpt lat="43.31898" lon="5.67039">
        <ele>925.1</ele>
        <time>2019-10-18T10:17:33.000Z</time>
      </trkpt>
      <trkpt lat="43.319" lon="5.67026">
        <ele>925.4</ele>
        <time>2019-10-18T10:17:44.000Z</time>
      </trkpt>
      <trkpt lat="43.31901" lon="5.67013">
        <ele>925.1</ele>
        <time>2019-10-18T10:17:54.000Z</time>
      </trkpt>
      <trkpt lat="43.31903" lon="5.67001">
        <ele>926.4</ele>
        <time>2019-10-18T10:18:5.000Z</time>
      </trkpt>
      <trkpt lat="43.31895" lon="5.66992">
        <ele>925.6</ele>
        <time>2019-10-18T10:18:15.000Z</time>
      </trkpt>
      <trkpt lat="43.31888" lon="5.66985">
        <ele>925.3</ele>
        <time>2019-10-18T10:18:25.000Z</time>
      </trkpt>
      <trkpt lat="43.31882" lon="5.66975">
        <ele>925.3</ele>
        <time>2019-10-18T10:19:12.000Z</time>
      </trkpt>
      <trkpt lat="43.31888" lon="5.66985">
        <ele>927.4</ele>
        <time>2019-10-18T10:20:59.000Z</time>
      </trkpt>
      <trkpt lat="43.31892" lon="5.66995">
        <ele>926.9</ele>
        <time>2019-10-18T10:21:25.000Z</time>
      </trkpt>
      <trkpt lat="43.31896" lon="5.67007">
        <ele>927.3</ele>
        <time>2019-10-18T10:21:38.000Z</time>
      </trkpt>
      <trkpt lat="43.31897" lon="5.6702">
        <ele>928</ele>
        <time>2019-10-18T10:21:55.000Z</time>
      </trkpt>
      <trkpt lat="43.31898" lon="5.67033">
        <ele>928.7</ele>
        <time>2019-10-18T10:22:9.000Z</time>
      </trkpt>
      <trkpt lat="43.31898" lon="5.67045">
        <ele>928.3</ele>
        <time>2019-10-18T10:22:22.000Z</time>
      </trkpt>
      <trkpt lat="43.31894" lon="5.67056">
        <ele>931.8</ele>
        <time>2019-10-18T10:54:10.000Z</time>
      </trkpt>
      <trkpt lat="43.31892" lon="5.67068">
        <ele>931.9</ele>
        <time>2019-10-18T10:54:22.000Z</time>
      </trkpt>
      <trkpt lat="43.31891" lon="5.67082">
        <ele>931.3</ele>
        <time>2019-10-18T10:54:36.000Z</time>
      </trkpt>
      <trkpt lat="43.31888" lon="5.67094">
        <ele>930.9</ele>
        <time>2019-10-18T10:54:45.000Z</time>
      </trkpt>
      <trkpt lat="43.31887" lon="5.67107">
        <ele>930.7</ele>
        <time>2019-10-18T10:54:56.000Z</time>
      </trkpt>
      <trkpt lat="43.31888" lon="5.6712">
        <ele>930.2</ele>
        <time>2019-10-18T10:55:9.000Z</time>
      </trkpt>
      <trkpt lat="43.31887" lon="5.67133">
        <ele>930.4</ele>
        <time>2019-10-18T10:55:20.000Z</time>
      </trkpt>
      <trkpt lat="43.31889" lon="5.67145">
        <ele>928.8</ele>
        <time>2019-10-18T10:55:31.000Z</time>
      </trkpt>
      <trkpt lat="43.31889" lon="5.67158">
        <ele>928.6</ele>
        <time>2019-10-18T10:55:42.000Z</time>
      </trkpt>
      <trkpt lat="43.31889" lon="5.67171">
        <ele>927.9</ele>
        <time>2019-10-18T10:55:54.000Z</time>
      </trkpt>
      <trkpt lat="43.31889" lon="5.67184">
        <ele>927</ele>
        <time>2019-10-18T10:56:5.000Z</time>
      </trkpt>
      <trkpt lat="43.31891" lon="5.67197">
        <ele>925.9</ele>
        <time>2019-10-18T10:56:16.000Z</time>
      </trkpt>
      <trkpt lat="43.31893" lon="5.67209">
        <ele>925.4</ele>
        <time>2019-10-18T10:56:26.000Z</time>
      </trkpt>
      <trkpt lat="43.31898" lon="5.6722">
        <ele>924.4</ele>
        <time>2019-10-18T10:56:38.000Z</time>
      </trkpt>
      <trkpt lat="43.31899" lon="5.67233">
        <ele>922.9</ele>
        <time>2019-10-18T10:56:52.000Z</time>
      </trkpt>
      <trkpt lat="43.31902" lon="5.67245">
        <ele>921.7</ele>
        <time>2019-10-18T10:57:4.000Z</time>
      </trkpt>
      <trkpt lat="43.31903" lon="5.67257">
        <ele>921.4</ele>
        <time>2019-10-18T10:57:14.000Z</time>
      </trkpt>
      <trkpt lat="43.31905" lon="5.6727">
        <ele>921.1</ele>
        <time>2019-10-18T10:57:25.000Z</time>
      </trkpt>
      <trkpt lat="43.31908" lon="5.67281">
        <ele>920.8</ele>
        <time>2019-10-18T10:57:35.000Z</time>
      </trkpt>
      <trkpt lat="43.31911" lon="5.67294">
        <ele>920.2</ele>
        <time>2019-10-18T10:57:47.000Z</time>
      </trkpt>
      <trkpt lat="43.31913" lon="5.67306">
        <ele>920.6</ele>
        <time>2019-10-18T10:57:57.000Z</time>
      </trkpt>
      <trkpt lat="43.31918" lon="5.67317">
        <ele>921.4</ele>
        <time>2019-10-18T10:58:11.000Z</time>
      </trkpt>
      <trkpt lat="43.31922" lon="5.67328">
        <ele>921</ele>
        <time>2019-10-18T10:58:28.000Z</time>
      </trkpt>
      <trkpt lat="43.31925" lon="5.6734">
        <ele>921.6</ele>
        <time>2019-10-18T10:58:39.000Z</time>
      </trkpt>
      <trkpt lat="43.3193" lon="5.67352">
        <ele>921.9</ele>
        <time>2019-10-18T10:58:50.000Z</time>
      </trkpt>
      <trkpt lat="43.31931" lon="5.67364">
        <ele>921.9</ele>
        <time>2019-10-18T10:58:59.000Z</time>
      </trkpt>
      <trkpt lat="43.31934" lon="5.67376">
        <ele>922</ele>
        <time>2019-10-18T10:59:10.000Z</time>
      </trkpt>
      <trkpt lat="43.31938" lon="5.67388">
        <ele>921.9</ele>
        <time>2019-10-18T10:59:20.000Z</time>
      </trkpt>
      <trkpt lat="43.31942" lon="5.67399">
        <ele>921.9</ele>
        <time>2019-10-18T10:59:31.000Z</time>
      </trkpt>
      <trkpt lat="43.31945" lon="5.67412">
        <ele>922.5</ele>
        <time>2019-10-18T10:59:43.000Z</time>
      </trkpt>
      <trkpt lat="43.31949" lon="5.67424">
        <ele>922.6</ele>
        <time>2019-10-18T10:59:55.000Z</time>
      </trkpt>
      <trkpt lat="43.31951" lon="5.67437">
        <ele>922.5</ele>
        <time>2019-10-18T11:00:7.000Z</time>
      </trkpt>
      <trkpt lat="43.31951" lon="5.6745">
        <ele>922</ele>
        <time>2019-10-18T11:00:26.000Z</time>
      </trkpt>
      <trkpt lat="43.3195" lon="5.67463">
        <ele>920.7</ele>
        <time>2019-10-18T11:00:38.000Z</time>
      </trkpt>
      <trkpt lat="43.31951" lon="5.67476">
        <ele>920.4</ele>
        <time>2019-10-18T11:00:51.000Z</time>
      </trkpt>
      <trkpt lat="43.3195" lon="5.67488">
        <ele>918.9</ele>
        <time>2019-10-18T11:01:12.000Z</time>
      </trkpt>
      <trkpt lat="43.3195" lon="5.67501">
        <ele>916.2</ele>
        <time>2019-10-18T11:01:32.000Z</time>
      </trkpt>
      <trkpt lat="43.31946" lon="5.67513">
        <ele>915.2</ele>
        <time>2019-10-18T11:01:46.000Z</time>
      </trkpt>
      <trkpt lat="43.31944" lon="5.67526">
        <ele>912.8</ele>
        <time>2019-10-18T11:01:58.000Z</time>
      </trkpt>
      <trkpt lat="43.3194" lon="5.67538">
        <ele>911.4</ele>
        <time>2019-10-18T11:02:10.000Z</time>
      </trkpt>
      <trkpt lat="43.31939" lon="5.6755">
        <ele>910.5</ele>
        <time>2019-10-18T11:02:21.000Z</time>
      </trkpt>
      <trkpt lat="43.31938" lon="5.67563">
        <ele>908.9</ele>
        <time>2019-10-18T11:02:31.000Z</time>
      </trkpt>
      <trkpt lat="43.31936" lon="5.67576">
        <ele>907.5</ele>
        <time>2019-10-18T11:02:41.000Z</time>
      </trkpt>
      <trkpt lat="43.31934" lon="5.67589">
        <ele>905.5</ele>
        <time>2019-10-18T11:02:52.000Z</time>
      </trkpt>
      <trkpt lat="43.31938" lon="5.676">
        <ele>904</ele>
        <time>2019-10-18T11:03:12.000Z</time>
      </trkpt>
      <trkpt lat="43.31938" lon="5.67614">
        <ele>902.1</ele>
        <time>2019-10-18T11:03:32.000Z</time>
      </trkpt>
      <trkpt lat="43.31934" lon="5.67625">
        <ele>900.2</ele>
        <time>2019-10-18T11:03:50.000Z</time>
      </trkpt>
      <trkpt lat="43.31935" lon="5.67638">
        <ele>898</ele>
        <time>2019-10-18T11:04:2.000Z</time>
      </trkpt>
      <trkpt lat="43.31934" lon="5.6765">
        <ele>895.9</ele>
        <time>2019-10-18T11:04:13.000Z</time>
      </trkpt>
      <trkpt lat="43.31937" lon="5.67662">
        <ele>893.9</ele>
        <time>2019-10-18T11:04:30.000Z</time>
      </trkpt>
      <trkpt lat="43.31939" lon="5.67675">
        <ele>891.1</ele>
        <time>2019-10-18T11:05:0.000Z</time>
      </trkpt>
      <trkpt lat="43.31939" lon="5.67687">
        <ele>888.7</ele>
        <time>2019-10-18T11:05:18.000Z</time>
      </trkpt>
      <trkpt lat="43.31938" lon="5.67701">
        <ele>887</ele>
        <time>2019-10-18T11:05:34.000Z</time>
      </trkpt>
      <trkpt lat="43.31936" lon="5.67713">
        <ele>885.1</ele>
        <time>2019-10-18T11:05:45.000Z</time>
      </trkpt>
      <trkpt lat="43.31935" lon="5.67726">
        <ele>883</ele>
        <time>2019-10-18T11:05:59.000Z</time>
      </trkpt>
      <trkpt lat="43.31933" lon="5.67739">
        <ele>882</ele>
        <time>2019-10-18T11:06:9.000Z</time>
      </trkpt>
      <trkpt lat="43.31933" lon="5.67752">
        <ele>880.5</ele>
        <time>2019-10-18T11:06:27.000Z</time>
      </trkpt>
      <trkpt lat="43.31935" lon="5.67764">
        <ele>878.8</ele>
        <time>2019-10-18T11:06:43.000Z</time>
      </trkpt>
      <trkpt lat="43.31934" lon="5.67777">
        <ele>877.9</ele>
        <time>2019-10-18T11:06:57.000Z</time>
      </trkpt>
      <trkpt lat="43.31933" lon="5.67789">
        <ele>876.3</ele>
        <time>2019-10-18T11:07:9.000Z</time>
      </trkpt>
      <trkpt lat="43.31934" lon="5.67802">
        <ele>875.1</ele>
        <time>2019-10-18T11:07:34.000Z</time>
      </trkpt>
      <trkpt lat="43.31932" lon="5.67815">
        <ele>874.7</ele>
        <time>2019-10-18T11:07:45.000Z</time>
      </trkpt>
      <trkpt lat="43.31935" lon="5.67827">
        <ele>874.1</ele>
        <time>2019-10-18T11:07:57.000Z</time>
      </trkpt>
      <trkpt lat="43.31937" lon="5.6784">
        <ele>873.3</ele>
        <time>2019-10-18T11:08:6.000Z</time>
      </trkpt>
      <trkpt lat="43.3194" lon="5.67851">
        <ele>872.8</ele>
        <time>2019-10-18T11:08:16.000Z</time>
      </trkpt>
      <trkpt lat="43.31941" lon="5.67865">
        <ele>872.6</ele>
        <time>2019-10-18T11:08:25.000Z</time>
      </trkpt>
      <trkpt lat="43.3194" lon="5.67879">
        <ele>872.1</ele>
        <time>2019-10-18T11:08:34.000Z</time>
      </trkpt>
      <trkpt lat="43.31942" lon="5.67891">
        <ele>872</ele>
        <time>2019-10-18T11:08:42.000Z</time>
      </trkpt>
      <trkpt lat="43.31945" lon="5.67903">
        <ele>871.7</ele>
        <time>2019-10-18T11:08:50.000Z</time>
      </trkpt>
      <trkpt lat="43.31948" lon="5.67915">
        <ele>871.4</ele>
        <time>2019-10-18T11:09:0.000Z</time>
      </trkpt>
      <trkpt lat="43.31947" lon="5.67927">
        <ele>871.1</ele>
        <time>2019-10-18T11:09:10.000Z</time>
      </trkpt>
      <trkpt lat="43.31943" lon="5.67939">
        <ele>871.5</ele>
        <time>2019-10-18T11:09:21.000Z</time>
      </trkpt>
      <trkpt lat="43.3194" lon="5.67951">
        <ele>871.4</ele>
        <time>2019-10-18T11:09:31.000Z</time>
      </trkpt>
      <trkpt lat="43.31938" lon="5.67965">
        <ele>871</ele>
        <time>2019-10-18T11:09:41.000Z</time>
      </trkpt>
      <trkpt lat="43.31934" lon="5.67977">
        <ele>871.9</ele>
        <time>2019-10-18T11:09:51.000Z</time>
      </trkpt>
      <trkpt lat="43.31932" lon="5.67989">
        <ele>872.2</ele>
        <time>2019-10-18T11:10:0.000Z</time>
      </trkpt>
      <trkpt lat="43.31932" lon="5.68003">
        <ele>872</ele>
        <time>2019-10-18T11:10:10.000Z</time>
      </trkpt>
      <trkpt lat="43.31932" lon="5.68015">
        <ele>871.9</ele>
        <time>2019-10-18T11:10:20.000Z</time>
      </trkpt>
      <trkpt lat="43.3193" lon="5.68028">
        <ele>871.2</ele>
        <time>2019-10-18T11:10:33.000Z</time>
      </trkpt>
      <trkpt lat="43.31932" lon="5.6804">
        <ele>870.9</ele>
        <time>2019-10-18T11:10:48.000Z</time>
      </trkpt>
      <trkpt lat="43.31934" lon="5.68053">
        <ele>871</ele>
        <time>2019-10-18T11:10:58.000Z</time>
      </trkpt>
      <trkpt lat="43.31933" lon="5.68065">
        <ele>871.1</ele>
        <time>2019-10-18T11:11:5.000Z</time>
      </trkpt>
      <trkpt lat="43.31929" lon="5.68076">
        <ele>871.2</ele>
        <time>2019-10-18T11:11:15.000Z</time>
      </trkpt>
      <trkpt lat="43.31925" lon="5.68088">
        <ele>870.3</ele>
        <time>2019-10-18T11:11:26.000Z</time>
      </trkpt>
      <trkpt lat="43.31922" lon="5.681">
        <ele>870.6</ele>
        <time>2019-10-18T11:11:36.000Z</time>
      </trkpt>
      <trkpt lat="43.3192" lon="5.68113">
        <ele>870.3</ele>
        <time>2019-10-18T11:11:46.000Z</time>
      </trkpt>
      <trkpt lat="43.31917" lon="5.68125">
        <ele>870.8</ele>
        <time>2019-10-18T11:11:57.000Z</time>
      </trkpt>
      <trkpt lat="43.31915" lon="5.68137">
        <ele>869.8</ele>
        <time>2019-10-18T11:12:7.000Z</time>
      </trkpt>
      <trkpt lat="43.31913" lon="5.6815">
        <ele>870.3</ele>
        <time>2019-10-18T11:12:17.000Z</time>
      </trkpt>
      <trkpt lat="43.31909" lon="5.68161">
        <ele>870.4</ele>
        <time>2019-10-18T11:12:27.000Z</time>
      </trkpt>
      <trkpt lat="43.31905" lon="5.68174">
        <ele>869.3</ele>
        <time>2019-10-18T11:12:37.000Z</time>
      </trkpt>
      <trkpt lat="43.31904" lon="5.68187">
        <ele>869.2</ele>
        <time>2019-10-18T11:12:46.000Z</time>
      </trkpt>
      <trkpt lat="43.31903" lon="5.68199">
        <ele>868.5</ele>
        <time>2019-10-18T11:12:57.000Z</time>
      </trkpt>
      <trkpt lat="43.31903" lon="5.68211">
        <ele>868</ele>
        <time>2019-10-18T11:13:7.000Z</time>
      </trkpt>
      <trkpt lat="43.31905" lon="5.68225">
        <ele>867.5</ele>
        <time>2019-10-18T11:13:18.000Z</time>
      </trkpt>
      <trkpt lat="43.31906" lon="5.68237">
        <ele>866.8</ele>
        <time>2019-10-18T11:13:30.000Z</time>
      </trkpt>
      <trkpt lat="43.31907" lon="5.6825">
        <ele>867.2</ele>
        <time>2019-10-18T11:13:40.000Z</time>
      </trkpt>
      <trkpt lat="43.31905" lon="5.68263">
        <ele>867</ele>
        <time>2019-10-18T11:13:50.000Z</time>
      </trkpt>
      <trkpt lat="43.31905" lon="5.68276">
        <ele>866.6</ele>
        <time>2019-10-18T11:14:1.000Z</time>
      </trkpt>
      <trkpt lat="43.31907" lon="5.68288">
        <ele>865.6</ele>
        <time>2019-10-18T11:14:13.000Z</time>
      </trkpt>
      <trkpt lat="43.31905" lon="5.68301">
        <ele>865.4</ele>
        <time>2019-10-18T11:14:22.000Z</time>
      </trkpt>
      <trkpt lat="43.319" lon="5.68312">
        <ele>865.5</ele>
        <time>2019-10-18T11:14:35.000Z</time>
      </trkpt>
      <trkpt lat="43.31896" lon="5.68324">
        <ele>865.4</ele>
        <time>2019-10-18T11:14:44.000Z</time>
      </trkpt>
      <trkpt lat="43.3189" lon="5.68334">
        <ele>865.8</ele>
        <time>2019-10-18T11:14:53.000Z</time>
      </trkpt>
      <trkpt lat="43.31883" lon="5.68343">
        <ele>866.2</ele>
        <time>2019-10-18T11:15:4.000Z</time>
      </trkpt>
      <trkpt lat="43.31876" lon="5.68352">
        <ele>867.3</ele>
        <time>2019-10-18T11:15:20.000Z</time>
      </trkpt>
      <trkpt lat="43.31873" lon="5.68364">
        <ele>867.6</ele>
        <time>2019-10-18T11:15:31.000Z</time>
      </trkpt>
      <trkpt lat="43.31864" lon="5.68368">
        <ele>867.8</ele>
        <time>2019-10-18T11:15:43.000Z</time>
      </trkpt>
      <trkpt lat="43.31855" lon="5.68371">
        <ele>868.6</ele>
        <time>2019-10-18T11:15:55.000Z</time>
      </trkpt>
      <trkpt lat="43.31849" lon="5.68381">
        <ele>865.3</ele>
        <time>2019-10-18T11:16:9.000Z</time>
      </trkpt>
      <trkpt lat="43.31844" lon="5.68392">
        <ele>866.5</ele>
        <time>2019-10-18T11:16:21.000Z</time>
      </trkpt>
      <trkpt lat="43.31836" lon="5.68399">
        <ele>866.3</ele>
        <time>2019-10-18T11:16:32.000Z</time>
      </trkpt>
      <trkpt lat="43.31832" lon="5.68411">
        <ele>864.9</ele>
        <time>2019-10-18T11:16:56.000Z</time>
      </trkpt>
      <trkpt lat="43.31824" lon="5.68418">
        <ele>864.9</ele>
        <time>2019-10-18T11:17:9.000Z</time>
      </trkpt>
      <trkpt lat="43.31815" lon="5.68423">
        <ele>863.6</ele>
        <time>2019-10-18T11:17:20.000Z</time>
      </trkpt>
      <trkpt lat="43.31807" lon="5.6843">
        <ele>863</ele>
        <time>2019-10-18T11:17:39.000Z</time>
      </trkpt>
      <trkpt lat="43.31798" lon="5.68428">
        <ele>863.2</ele>
        <time>2019-10-18T11:17:51.000Z</time>
      </trkpt>
      <trkpt lat="43.31789" lon="5.68433">
        <ele>863.6</ele>
        <time>2019-10-18T11:18:4.000Z</time>
      </trkpt>
      <trkpt lat="43.3178" lon="5.68434">
        <ele>864</ele>
        <time>2019-10-18T11:18:14.000Z</time>
      </trkpt>
      <trkpt lat="43.3177" lon="5.68436">
        <ele>864.8</ele>
        <time>2019-10-18T11:18:24.000Z</time>
      </trkpt>
      <trkpt lat="43.31764" lon="5.68445">
        <ele>865.3</ele>
        <time>2019-10-18T11:18:36.000Z</time>
      </trkpt>
      <trkpt lat="43.31756" lon="5.68451">
        <ele>866.4</ele>
        <time>2019-10-18T11:18:51.000Z</time>
      </trkpt>
      <trkpt lat="43.31751" lon="5.68462">
        <ele>867.6</ele>
        <time>2019-10-18T11:19:6.000Z</time>
      </trkpt>
      <trkpt lat="43.31748" lon="5.68474">
        <ele>868.9</ele>
        <time>2019-10-18T11:19:21.000Z</time>
      </trkpt>
      <trkpt lat="43.31742" lon="5.68485">
        <ele>869.7</ele>
        <time>2019-10-18T11:19:36.000Z</time>
      </trkpt>
      <trkpt lat="43.31736" lon="5.68494">
        <ele>869.8</ele>
        <time>2019-10-18T11:19:47.000Z</time>
      </trkpt>
      <trkpt lat="43.31732" lon="5.68505">
        <ele>869.8</ele>
        <time>2019-10-18T11:19:58.000Z</time>
      </trkpt>
      <trkpt lat="43.31726" lon="5.68516">
        <ele>870.4</ele>
        <time>2019-10-18T11:20:9.000Z</time>
      </trkpt>
      <trkpt lat="43.31719" lon="5.68524">
        <ele>870</ele>
        <time>2019-10-18T11:20:19.000Z</time>
      </trkpt>
      <trkpt lat="43.3171" lon="5.68529">
        <ele>869.5</ele>
        <time>2019-10-18T11:20:30.000Z</time>
      </trkpt>
      <trkpt lat="43.31701" lon="5.6853">
        <ele>868.2</ele>
        <time>2019-10-18T11:20:41.000Z</time>
      </trkpt>
      <trkpt lat="43.31691" lon="5.68528">
        <ele>867.6</ele>
        <time>2019-10-18T11:20:49.000Z</time>
      </trkpt>
      <trkpt lat="43.31683" lon="5.68534">
        <ele>867.4</ele>
        <time>2019-10-18T11:21:0.000Z</time>
      </trkpt>
      <trkpt lat="43.31675" lon="5.6854">
        <ele>866.8</ele>
        <time>2019-10-18T11:21:9.000Z</time>
      </trkpt>
      <trkpt lat="43.31665" lon="5.6854">
        <ele>867.2</ele>
        <time>2019-10-18T11:24:7.000Z</time>
      </trkpt>
      <trkpt lat="43.31656" lon="5.68543">
        <ele>867.1</ele>
        <time>2019-10-18T11:24:19.000Z</time>
      </trkpt>
      <trkpt lat="43.31648" lon="5.6855">
        <ele>866.8</ele>
        <time>2019-10-18T11:24:32.000Z</time>
      </trkpt>
      <trkpt lat="43.31642" lon="5.6856">
        <ele>865.8</ele>
        <time>2019-10-18T11:24:45.000Z</time>
      </trkpt>
      <trkpt lat="43.31639" lon="5.68572">
        <ele>865.2</ele>
        <time>2019-10-18T11:24:56.000Z</time>
      </trkpt>
      <trkpt lat="43.31637" lon="5.68585">
        <ele>864.1</ele>
        <time>2019-10-18T11:25:6.000Z</time>
      </trkpt>
      <trkpt lat="43.31634" lon="5.68597">
        <ele>864.2</ele>
        <time>2019-10-18T11:25:25.000Z</time>
      </trkpt>
      <trkpt lat="43.31633" lon="5.68609">
        <ele>865.1</ele>
        <time>2019-10-18T11:25:54.000Z</time>
      </trkpt>
      <trkpt lat="43.31632" lon="5.68622">
        <ele>866.6</ele>
        <time>2019-10-18T11:26:7.000Z</time>
      </trkpt>
      <trkpt lat="43.31629" lon="5.68635">
        <ele>869.3</ele>
        <time>2019-10-18T11:26:26.000Z</time>
      </trkpt>
      <trkpt lat="43.31624" lon="5.68646">
        <ele>871.9</ele>
        <time>2019-10-18T11:26:42.000Z</time>
      </trkpt>
      <trkpt lat="43.31621" lon="5.68658">
        <ele>874.1</ele>
        <time>2019-10-18T11:26:58.000Z</time>
      </trkpt>
      <trkpt lat="43.31619" lon="5.6867">
        <ele>875.7</ele>
        <time>2019-10-18T11:27:16.000Z</time>
      </trkpt>
      <trkpt lat="43.31624" lon="5.6868">
        <ele>876.9</ele>
        <time>2019-10-18T11:27:46.000Z</time>
      </trkpt>
      <trkpt lat="43.31625" lon="5.68693">
        <ele>879.7</ele>
        <time>2019-10-18T11:28:0.000Z</time>
      </trkpt>
      <trkpt lat="43.31621" lon="5.68705">
        <ele>880.2</ele>
        <time>2019-10-18T11:28:13.000Z</time>
      </trkpt>
      <trkpt lat="43.31617" lon="5.68717">
        <ele>881</ele>
        <time>2019-10-18T11:28:25.000Z</time>
      </trkpt>
      <trkpt lat="43.31617" lon="5.68729">
        <ele>880</ele>
        <time>2019-10-18T11:28:37.000Z</time>
      </trkpt>
      <trkpt lat="43.31624" lon="5.68737">
        <ele>880.3</ele>
        <time>2019-10-18T11:28:48.000Z</time>
      </trkpt>
      <trkpt lat="43.31632" lon="5.68745">
        <ele>880.1</ele>
        <time>2019-10-18T11:28:58.000Z</time>
      </trkpt>
      <trkpt lat="43.3164" lon="5.68752">
        <ele>879.8</ele>
        <time>2019-10-18T11:29:21.000Z</time>
      </trkpt>
      <trkpt lat="43.31643" lon="5.68765">
        <ele>879.8</ele>
        <time>2019-10-18T11:29:33.000Z</time>
      </trkpt>
      <trkpt lat="43.31641" lon="5.68777">
        <ele>879.2</ele>
        <time>2019-10-18T11:29:53.000Z</time>
      </trkpt>
      <trkpt lat="43.31639" lon="5.68791">
        <ele>878.6</ele>
        <time>2019-10-18T11:30:2.000Z</time>
      </trkpt>
      <trkpt lat="43.31637" lon="5.68804">
        <ele>878.4</ele>
        <time>2019-10-18T11:30:10.000Z</time>
      </trkpt>
      <trkpt lat="43.31636" lon="5.68816">
        <ele>879.2</ele>
        <time>2019-10-18T11:30:18.000Z</time>
      </trkpt>
      <trkpt lat="43.31633" lon="5.68828">
        <ele>879.7</ele>
        <time>2019-10-18T11:30:27.000Z</time>
      </trkpt>
      <trkpt lat="43.31626" lon="5.68836">
        <ele>882</ele>
        <time>2019-10-18T11:30:42.000Z</time>
      </trkpt>
      <trkpt lat="43.31618" lon="5.68831">
        <ele>883</ele>
        <time>2019-10-18T11:30:51.000Z</time>
      </trkpt>
      <trkpt lat="43.31608" lon="5.68826">
        <ele>882.8</ele>
        <time>2019-10-18T11:31:0.000Z</time>
      </trkpt>
      <trkpt lat="43.31601" lon="5.68817">
        <ele>882.3</ele>
        <time>2019-10-18T11:31:9.000Z</time>
      </trkpt>
      <trkpt lat="43.31593" lon="5.6881">
        <ele>881.1</ele>
        <time>2019-10-18T11:31:20.000Z</time>
      </trkpt>
      <trkpt lat="43.31599" lon="5.68821">
        <ele>880.2</ele>
        <time>2019-10-18T11:31:36.000Z</time>
      </trkpt>
      <trkpt lat="43.31601" lon="5.68834">
        <ele>880.7</ele>
        <time>2019-10-18T11:31:45.000Z</time>
      </trkpt>
      <trkpt lat="43.31602" lon="5.68847">
        <ele>881.2</ele>
        <time>2019-10-18T11:31:54.000Z</time>
      </trkpt>
      <trkpt lat="43.31599" lon="5.68859">
        <ele>881.8</ele>
        <time>2019-10-18T11:32:4.000Z</time>
      </trkpt>
      <trkpt lat="43.31606" lon="5.68869">
        <ele>883</ele>
        <time>2019-10-18T11:32:13.000Z</time>
      </trkpt>
      <trkpt lat="43.31608" lon="5.68881">
        <ele>884.2</ele>
        <time>2019-10-18T11:32:22.000Z</time>
      </trkpt>
      <trkpt lat="43.31604" lon="5.68894">
        <ele>885.6</ele>
        <time>2019-10-18T11:32:32.000Z</time>
      </trkpt>
      <trkpt lat="43.31602" lon="5.68906">
        <ele>888.5</ele>
        <time>2019-10-18T11:32:46.000Z</time>
      </trkpt>
      <trkpt lat="43.31597" lon="5.68917">
        <ele>888.9</ele>
        <time>2019-10-18T11:33:24.000Z</time>
      </trkpt>
      <trkpt lat="43.31592" lon="5.68927">
        <ele>882.8</ele>
        <time>2019-10-18T11:34:19.000Z</time>
      </trkpt>
      <trkpt lat="43.31585" lon="5.68934">
        <ele>879.1</ele>
        <time>2019-10-18T11:34:55.000Z</time>
      </trkpt>
      <trkpt lat="43.31576" lon="5.68935">
        <ele>877.1</ele>
        <time>2019-10-18T11:35:9.000Z</time>
      </trkpt>
      <trkpt lat="43.31566" lon="5.68937">
        <ele>874.8</ele>
        <time>2019-10-18T11:35:21.000Z</time>
      </trkpt>
      <trkpt lat="43.31558" lon="5.68941">
        <ele>873.7</ele>
        <time>2019-10-18T11:35:31.000Z</time>
      </trkpt>
      <trkpt lat="43.31549" lon="5.68945">
        <ele>873.8</ele>
        <time>2019-10-18T11:35:39.000Z</time>
      </trkpt>
      <trkpt lat="43.3154" lon="5.68948">
        <ele>874.6</ele>
        <time>2019-10-18T11:35:52.000Z</time>
      </trkpt>
      <trkpt lat="43.31531" lon="5.68952">
        <ele>875.1</ele>
        <time>2019-10-18T11:36:3.000Z</time>
      </trkpt>
      <trkpt lat="43.3152" lon="5.68951">
        <ele>875.7</ele>
        <time>2019-10-18T11:36:16.000Z</time>
      </trkpt>
      <trkpt lat="43.31511" lon="5.68947">
        <ele>876.8</ele>
        <time>2019-10-18T11:36:39.000Z</time>
      </trkpt>
      <trkpt lat="43.31503" lon="5.68949">
        <ele>874.5</ele>
        <time>2019-10-18T11:37:37.000Z</time>
      </trkpt>
      <trkpt lat="43.31506" lon="5.6896">
        <ele>874.9</ele>
        <time>2019-10-18T11:41:49.000Z</time>
      </trkpt>
      <trkpt lat="43.31515" lon="5.68961">
        <ele>874.1</ele>
        <time>2019-10-18T11:42:49.000Z</time>
      </trkpt>
      <trkpt lat="43.31522" lon="5.6897">
        <ele>872.5</ele>
        <time>2019-10-18T11:43:1.000Z</time>
      </trkpt>
      <trkpt lat="43.3153" lon="5.68975">
        <ele>870.7</ele>
        <time>2019-10-18T11:43:14.000Z</time>
      </trkpt>
      <trkpt lat="43.31537" lon="5.68984">
        <ele>869.7</ele>
        <time>2019-10-18T11:43:29.000Z</time>
      </trkpt>
      <trkpt lat="43.31544" lon="5.68994">
        <ele>868.2</ele>
        <time>2019-10-18T11:43:41.000Z</time>
      </trkpt>
      <trkpt lat="43.31549" lon="5.69005">
        <ele>867.9</ele>
        <time>2019-10-18T11:43:51.000Z</time>
      </trkpt>
      <trkpt lat="43.31556" lon="5.69013">
        <ele>865.8</ele>
        <time>2019-10-18T11:44:9.000Z</time>
      </trkpt>
      <trkpt lat="43.3156" lon="5.69025">
        <ele>864.3</ele>
        <time>2019-10-18T11:44:19.000Z</time>
      </trkpt>
      <trkpt lat="43.31565" lon="5.69037">
        <ele>862.6</ele>
        <time>2019-10-18T11:44:32.000Z</time>
      </trkpt>
      <trkpt lat="43.31569" lon="5.69048">
        <ele>861.1</ele>
        <time>2019-10-18T11:44:42.000Z</time>
      </trkpt>
      <trkpt lat="43.31574" lon="5.69059">
        <ele>859.6</ele>
        <time>2019-10-18T11:44:52.000Z</time>
      </trkpt>
      <trkpt lat="43.31578" lon="5.6907">
        <ele>857.7</ele>
        <time>2019-10-18T11:45:3.000Z</time>
      </trkpt>
      <trkpt lat="43.31582" lon="5.69081">
        <ele>855.9</ele>
        <time>2019-10-18T11:45:15.000Z</time>
      </trkpt>
      <trkpt lat="43.31585" lon="5.69093">
        <ele>854.7</ele>
        <time>2019-10-18T11:45:25.000Z</time>
      </trkpt>
      <trkpt lat="43.31587" lon="5.69105">
        <ele>853.9</ele>
        <time>2019-10-18T11:45:35.000Z</time>
      </trkpt>
      <trkpt lat="43.31591" lon="5.69118">
        <ele>853.2</ele>
        <time>2019-10-18T11:45:44.000Z</time>
      </trkpt>
      <trkpt lat="43.31592" lon="5.69132">
        <ele>852</ele>
        <time>2019-10-18T11:45:55.000Z</time>
      </trkpt>
      <trkpt lat="43.31595" lon="5.69144">
        <ele>851.4</ele>
        <time>2019-10-18T11:46:11.000Z</time>
      </trkpt>
      <trkpt lat="43.31597" lon="5.69157">
        <ele>850.1</ele>
        <time>2019-10-18T11:46:23.000Z</time>
      </trkpt>
      <trkpt lat="43.316" lon="5.69169">
        <ele>848.9</ele>
        <time>2019-10-18T11:46:32.000Z</time>
      </trkpt>
      <trkpt lat="43.31601" lon="5.69182">
        <ele>848.2</ele>
        <time>2019-10-18T11:46:40.000Z</time>
      </trkpt>
      <trkpt lat="43.31601" lon="5.69195">
        <ele>846.9</ele>
        <time>2019-10-18T11:46:49.000Z</time>
      </trkpt>
      <trkpt lat="43.31602" lon="5.69207">
        <ele>846</ele>
        <time>2019-10-18T11:46:58.000Z</time>
      </trkpt>
      <trkpt lat="43.31605" lon="5.6922">
        <ele>844.7</ele>
        <time>2019-10-18T11:47:8.000Z</time>
      </trkpt>
      <trkpt lat="43.31609" lon="5.69232">
        <ele>843.4</ele>
        <time>2019-10-18T11:47:17.000Z</time>
      </trkpt>
      <trkpt lat="43.31613" lon="5.69244">
        <ele>841.7</ele>
        <time>2019-10-18T11:47:27.000Z</time>
      </trkpt>
      <trkpt lat="43.31619" lon="5.69254">
        <ele>840.2</ele>
        <time>2019-10-18T11:47:37.000Z</time>
      </trkpt>
      <trkpt lat="43.31623" lon="5.69265">
        <ele>839.2</ele>
        <time>2019-10-18T11:47:44.000Z</time>
      </trkpt>
      <trkpt lat="43.31627" lon="5.69276">
        <ele>838.3</ele>
        <time>2019-10-18T11:47:54.000Z</time>
      </trkpt>
      <trkpt lat="43.31632" lon="5.69287">
        <ele>837.2</ele>
        <time>2019-10-18T11:48:3.000Z</time>
      </trkpt>
      <trkpt lat="43.31639" lon="5.69295">
        <ele>836</ele>
        <time>2019-10-18T11:49:0.000Z</time>
      </trkpt>
      <trkpt lat="43.31648" lon="5.69298">
        <ele>832.7</ele>
        <time>2019-10-18T11:49:30.000Z</time>
      </trkpt>
      <trkpt lat="43.31655" lon="5.69306">
        <ele>830</ele>
        <time>2019-10-18T11:49:47.000Z</time>
      </trkpt>
      <trkpt lat="43.3166" lon="5.69316">
        <ele>827.4</ele>
        <time>2019-10-18T11:50:4.000Z</time>
      </trkpt>
      <trkpt lat="43.31664" lon="5.69328">
        <ele>824.9</ele>
        <time>2019-10-18T11:50:16.000Z</time>
      </trkpt>
      <trkpt lat="43.31668" lon="5.6934">
        <ele>822.1</ele>
        <time>2019-10-18T11:50:30.000Z</time>
      </trkpt>
      <trkpt lat="43.31674" lon="5.69349">
        <ele>819.5</ele>
        <time>2019-10-18T11:50:47.000Z</time>
      </trkpt>
      <trkpt lat="43.31679" lon="5.69359">
        <ele>816.4</ele>
        <time>2019-10-18T11:51:4.000Z</time>
      </trkpt>
      <trkpt lat="43.31683" lon="5.6937">
        <ele>813.4</ele>
        <time>2019-10-18T11:51:21.000Z</time>
      </trkpt>
      <trkpt lat="43.31685" lon="5.69383">
        <ele>811.3</ele>
        <time>2019-10-18T11:51:35.000Z</time>
      </trkpt>
      <trkpt lat="43.31687" lon="5.69395">
        <ele>810.2</ele>
        <time>2019-10-18T11:51:53.000Z</time>
      </trkpt>
      <trkpt lat="43.3169" lon="5.69407">
        <ele>807.9</ele>
        <time>2019-10-18T11:52:12.000Z</time>
      </trkpt>
      <trkpt lat="43.31695" lon="5.69417">
        <ele>804</ele>
        <time>2019-10-18T11:53:0.000Z</time>
      </trkpt>
      <trkpt lat="43.31702" lon="5.69425">
        <ele>802.6</ele>
        <time>2019-10-18T11:53:13.000Z</time>
      </trkpt>
      <trkpt lat="43.3171" lon="5.69432">
        <ele>799.7</ele>
        <time>2019-10-18T11:53:28.000Z</time>
      </trkpt>
      <trkpt lat="43.31717" lon="5.69443">
        <ele>797.2</ele>
        <time>2019-10-18T11:53:39.000Z</time>
      </trkpt>
      <trkpt lat="43.31722" lon="5.69453">
        <ele>794.6</ele>
        <time>2019-10-18T11:53:49.000Z</time>
      </trkpt>
      <trkpt lat="43.31723" lon="5.69465">
        <ele>792.5</ele>
        <time>2019-10-18T11:54:0.000Z</time>
      </trkpt>
      <trkpt lat="43.31728" lon="5.69477">
        <ele>790.3</ele>
        <time>2019-10-18T11:54:13.000Z</time>
      </trkpt>
      <trkpt lat="43.31729" lon="5.6949">
        <ele>789.3</ele>
        <time>2019-10-18T11:54:24.000Z</time>
      </trkpt>
      <trkpt lat="43.31732" lon="5.69501">
        <ele>788.7</ele>
        <time>2019-10-18T11:54:34.000Z</time>
      </trkpt>
      <trkpt lat="43.31732" lon="5.69514">
        <ele>788.6</ele>
        <time>2019-10-18T11:54:48.000Z</time>
      </trkpt>
      <trkpt lat="43.31735" lon="5.69527">
        <ele>788.1</ele>
        <time>2019-10-18T11:54:58.000Z</time>
      </trkpt>
      <trkpt lat="43.31737" lon="5.6954">
        <ele>787.3</ele>
        <time>2019-10-18T11:55:9.000Z</time>
      </trkpt>
      <trkpt lat="43.31735" lon="5.69552">
        <ele>786.2</ele>
        <time>2019-10-18T11:55:21.000Z</time>
      </trkpt>
      <trkpt lat="43.31738" lon="5.69564">
        <ele>783.9</ele>
        <time>2019-10-18T11:55:36.000Z</time>
      </trkpt>
      <trkpt lat="43.3174" lon="5.69576">
        <ele>781.3</ele>
        <time>2019-10-18T11:55:54.000Z</time>
      </trkpt>
      <trkpt lat="43.31744" lon="5.69588">
        <ele>779.8</ele>
        <time>2019-10-18T11:56:7.000Z</time>
      </trkpt>
      <trkpt lat="43.31748" lon="5.69601">
        <ele>778.4</ele>
        <time>2019-10-18T11:56:21.000Z</time>
      </trkpt>
      <trkpt lat="43.31754" lon="5.6961">
        <ele>775.9</ele>
        <time>2019-10-18T11:56:38.000Z</time>
      </trkpt>
      <trkpt lat="43.31758" lon="5.69621">
        <ele>773.9</ele>
        <time>2019-10-18T11:56:52.000Z</time>
      </trkpt>
      <trkpt lat="43.31765" lon="5.6963">
        <ele>772.3</ele>
        <time>2019-10-18T11:57:5.000Z</time>
      </trkpt>
      <trkpt lat="43.31772" lon="5.6964">
        <ele>769.9</ele>
        <time>2019-10-18T11:57:23.000Z</time>
      </trkpt>
      <trkpt lat="43.3178" lon="5.69646">
        <ele>767.5</ele>
        <time>2019-10-18T11:57:41.000Z</time>
      </trkpt>
      <trkpt lat="43.31786" lon="5.69656">
        <ele>765.2</ele>
        <time>2019-10-18T11:57:57.000Z</time>
      </trkpt>
      <trkpt lat="43.31789" lon="5.69668">
        <ele>763.4</ele>
        <time>2019-10-18T11:58:12.000Z</time>
      </trkpt>
      <trkpt lat="43.31793" lon="5.6968">
        <ele>761.4</ele>
        <time>2019-10-18T11:58:25.000Z</time>
      </trkpt>
      <trkpt lat="43.31796" lon="5.69692">
        <ele>759.3</ele>
        <time>2019-10-18T11:58:40.000Z</time>
      </trkpt>
      <trkpt lat="43.31796" lon="5.69705">
        <ele>758.8</ele>
        <time>2019-10-18T11:59:8.000Z</time>
      </trkpt>
      <trkpt lat="43.31797" lon="5.69718">
        <ele>756.2</ele>
        <time>2019-10-18T11:59:25.000Z</time>
      </trkpt>
      <trkpt lat="43.318" lon="5.6973">
        <ele>753.9</ele>
        <time>2019-10-18T11:59:37.000Z</time>
      </trkpt>
      <trkpt lat="43.31806" lon="5.69739">
        <ele>751.3</ele>
        <time>2019-10-18T11:59:56.000Z</time>
      </trkpt>
      <trkpt lat="43.31814" lon="5.69746">
        <ele>749.9</ele>
        <time>2019-10-18T12:00:11.000Z</time>
      </trkpt>
      <trkpt lat="43.31819" lon="5.69756">
        <ele>747.4</ele>
        <time>2019-10-18T12:00:29.000Z</time>
      </trkpt>
      <trkpt lat="43.31825" lon="5.69766">
        <ele>745.4</ele>
        <time>2019-10-18T12:00:46.000Z</time>
      </trkpt>
      <trkpt lat="43.3183" lon="5.69777">
        <ele>744.1</ele>
        <time>2019-10-18T12:00:58.000Z</time>
      </trkpt>
      <trkpt lat="43.31832" lon="5.6979">
        <ele>743.3</ele>
        <time>2019-10-18T12:01:13.000Z</time>
      </trkpt>
      <trkpt lat="43.31839" lon="5.69797">
        <ele>741.2</ele>
        <time>2019-10-18T12:01:25.000Z</time>
      </trkpt>
      <trkpt lat="43.31846" lon="5.69807">
        <ele>738.8</ele>
        <time>2019-10-18T12:01:48.000Z</time>
      </trkpt>
      <trkpt lat="43.31852" lon="5.69816">
        <ele>737.9</ele>
        <time>2019-10-18T12:01:56.000Z</time>
      </trkpt>
      <trkpt lat="43.31858" lon="5.69826">
        <ele>735.5</ele>
        <time>2019-10-18T12:02:11.000Z</time>
      </trkpt>
      <trkpt lat="43.31862" lon="5.69837">
        <ele>734.5</ele>
        <time>2019-10-18T12:02:25.000Z</time>
      </trkpt>
      <trkpt lat="43.31865" lon="5.6985">
        <ele>733.5</ele>
        <time>2019-10-18T12:02:36.000Z</time>
      </trkpt>
      <trkpt lat="43.31865" lon="5.69863">
        <ele>732.4</ele>
        <time>2019-10-18T12:02:56.000Z</time>
      </trkpt>
      <trkpt lat="43.31871" lon="5.69873">
        <ele>732</ele>
        <time>2019-10-18T12:03:19.000Z</time>
      </trkpt>
      <trkpt lat="43.31878" lon="5.69881">
        <ele>731.4</ele>
        <time>2019-10-18T12:03:30.000Z</time>
      </trkpt>
      <trkpt lat="43.31884" lon="5.69891">
        <ele>730.9</ele>
        <time>2019-10-18T12:03:37.000Z</time>
      </trkpt>
      <trkpt lat="43.31891" lon="5.69901">
        <ele>730.4</ele>
        <time>2019-10-18T12:03:47.000Z</time>
      </trkpt>
      <trkpt lat="43.31893" lon="5.69913">
        <ele>729.7</ele>
        <time>2019-10-18T12:04:2.000Z</time>
      </trkpt>
      <trkpt lat="43.31898" lon="5.69923">
        <ele>728.2</ele>
        <time>2019-10-18T12:04:20.000Z</time>
      </trkpt>
      <trkpt lat="43.31897" lon="5.69937">
        <ele>728.7</ele>
        <time>2019-10-18T12:04:30.000Z</time>
      </trkpt>
      <trkpt lat="43.31891" lon="5.69946">
        <ele>730.2</ele>
        <time>2019-10-18T12:04:53.000Z</time>
      </trkpt>
      <trkpt lat="43.31883" lon="5.69954">
        <ele>732.3</ele>
        <time>2019-10-18T12:05:23.000Z</time>
      </trkpt>
      <trkpt lat="43.31873" lon="5.69956">
        <ele>733.4</ele>
        <time>2019-10-18T12:05:45.000Z</time>
      </trkpt>
      <trkpt lat="43.31881" lon="5.6995">
        <ele>731.6</ele>
        <time>2019-10-18T12:06:14.000Z</time>
      </trkpt>
      <trkpt lat="43.3189" lon="5.69952">
        <ele>731.2</ele>
        <time>2019-10-18T12:08:32.000Z</time>
      </trkpt>
      <trkpt lat="43.31898" lon="5.69959">
        <ele>730.9</ele>
        <time>2019-10-18T12:08:51.000Z</time>
      </trkpt>
      <trkpt lat="43.31906" lon="5.69967">
        <ele>731.1</ele>
        <time>2019-10-18T12:09:1.000Z</time>
      </trkpt>
      <trkpt lat="43.31911" lon="5.69977">
        <ele>731.8</ele>
        <time>2019-10-18T12:09:12.000Z</time>
      </trkpt>
      <trkpt lat="43.31918" lon="5.69987">
        <ele>731.7</ele>
        <time>2019-10-18T12:09:22.000Z</time>
      </trkpt>
      <trkpt lat="43.31924" lon="5.69997">
        <ele>731.1</ele>
        <time>2019-10-18T12:09:36.000Z</time>
      </trkpt>
      <trkpt lat="43.31932" lon="5.70003">
        <ele>730.9</ele>
        <time>2019-10-18T12:09:47.000Z</time>
      </trkpt>
      <trkpt lat="43.31941" lon="5.70007">
        <ele>731</ele>
        <time>2019-10-18T12:09:55.000Z</time>
      </trkpt>
      <trkpt lat="43.31948" lon="5.70014">
        <ele>730.1</ele>
        <time>2019-10-18T12:10:4.000Z</time>
      </trkpt>
      <trkpt lat="43.31954" lon="5.70024">
        <ele>729.3</ele>
        <time>2019-10-18T12:10:13.000Z</time>
      </trkpt>
      <trkpt lat="43.31959" lon="5.70035">
        <ele>730.1</ele>
        <time>2019-10-18T12:10:26.000Z</time>
      </trkpt>
      <trkpt lat="43.31964" lon="5.70046">
        <ele>731.2</ele>
        <time>2019-10-18T12:10:38.000Z</time>
      </trkpt>
      <trkpt lat="43.31971" lon="5.70055">
        <ele>730.2</ele>
        <time>2019-10-18T12:10:53.000Z</time>
      </trkpt>
      <trkpt lat="43.31976" lon="5.70065">
        <ele>727.5</ele>
        <time>2019-10-18T12:11:8.000Z</time>
      </trkpt>
      <trkpt lat="43.31982" lon="5.70075">
        <ele>725.1</ele>
        <time>2019-10-18T12:11:21.000Z</time>
      </trkpt>
      <trkpt lat="43.31989" lon="5.70083">
        <ele>722.7</ele>
        <time>2019-10-18T12:11:36.000Z</time>
      </trkpt>
      <trkpt lat="43.31998" lon="5.70088">
        <ele>719.9</ele>
        <time>2019-10-18T12:11:51.000Z</time>
      </trkpt>
      <trkpt lat="43.32007" lon="5.7009">
        <ele>718.6</ele>
        <time>2019-10-18T12:12:4.000Z</time>
      </trkpt>
      <trkpt lat="43.32017" lon="5.70091">
        <ele>716.9</ele>
        <time>2019-10-18T12:12:17.000Z</time>
      </trkpt>
      <trkpt lat="43.32024" lon="5.701">
        <ele>716.2</ele>
        <time>2019-10-18T12:12:29.000Z</time>
      </trkpt>
      <trkpt lat="43.32032" lon="5.70108">
        <ele>715.5</ele>
        <time>2019-10-18T12:12:42.000Z</time>
      </trkpt>
      <trkpt lat="43.3204" lon="5.70113">
        <ele>714.8</ele>
        <time>2019-10-18T12:12:51.000Z</time>
      </trkpt>
      <trkpt lat="43.32049" lon="5.70118">
        <ele>713.2</ele>
        <time>2019-10-18T12:13:1.000Z</time>
      </trkpt>
      <trkpt lat="43.32059" lon="5.70121">
        <ele>711.6</ele>
        <time>2019-10-18T12:13:14.000Z</time>
      </trkpt>
      <trkpt lat="43.32068" lon="5.70123">
        <ele>710.2</ele>
        <time>2019-10-18T12:13:25.000Z</time>
      </trkpt>
      <trkpt lat="43.32075" lon="5.70133">
        <ele>709.6</ele>
        <time>2019-10-18T12:13:38.000Z</time>
      </trkpt>
      <trkpt lat="43.32084" lon="5.7014">
        <ele>709.4</ele>
        <time>2019-10-18T12:13:47.000Z</time>
      </trkpt>
      <trkpt lat="43.32094" lon="5.70143">
        <ele>708.6</ele>
        <time>2019-10-18T12:14:0.000Z</time>
      </trkpt>
      <trkpt lat="43.32103" lon="5.70147">
        <ele>707.8</ele>
        <time>2019-10-18T12:14:10.000Z</time>
      </trkpt>
      <trkpt lat="43.32112" lon="5.70149">
        <ele>706.5</ele>
        <time>2019-10-18T12:14:23.000Z</time>
      </trkpt>
      <trkpt lat="43.32121" lon="5.70149">
        <ele>705.2</ele>
        <time>2019-10-18T12:14:40.000Z</time>
      </trkpt>
      <trkpt lat="43.32128" lon="5.70141">
        <ele>704.8</ele>
        <time>2019-10-18T12:14:54.000Z</time>
      </trkpt>
      <trkpt lat="43.32138" lon="5.70136">
        <ele>704.9</ele>
        <time>2019-10-18T12:15:6.000Z</time>
      </trkpt>
      <trkpt lat="43.32145" lon="5.70146">
        <ele>703.7</ele>
        <time>2019-10-18T12:15:23.000Z</time>
      </trkpt>
      <trkpt lat="43.3215" lon="5.70156">
        <ele>703.4</ele>
        <time>2019-10-18T12:15:43.000Z</time>
      </trkpt>
      <trkpt lat="43.32157" lon="5.70164">
        <ele>703.5</ele>
        <time>2019-10-18T12:15:54.000Z</time>
      </trkpt>
      <trkpt lat="43.32165" lon="5.70173">
        <ele>704.2</ele>
        <time>2019-10-18T12:16:5.000Z</time>
      </trkpt>
      <trkpt lat="43.32172" lon="5.70181">
        <ele>705.1</ele>
        <time>2019-10-18T12:16:15.000Z</time>
      </trkpt>
      <trkpt lat="43.32178" lon="5.7019">
        <ele>706.1</ele>
        <time>2019-10-18T12:16:26.000Z</time>
      </trkpt>
      <trkpt lat="43.32186" lon="5.70198">
        <ele>706.5</ele>
        <time>2019-10-18T12:16:36.000Z</time>
      </trkpt>
      <trkpt lat="43.32193" lon="5.70207">
        <ele>706.8</ele>
        <time>2019-10-18T12:16:47.000Z</time>
      </trkpt>
      <trkpt lat="43.322" lon="5.70215">
        <ele>707.2</ele>
        <time>2019-10-18T12:16:57.000Z</time>
      </trkpt>
      <trkpt lat="43.32206" lon="5.70225">
        <ele>707.6</ele>
        <time>2019-10-18T12:17:9.000Z</time>
      </trkpt>
      <trkpt lat="43.32211" lon="5.70235">
        <ele>708</ele>
        <time>2019-10-18T12:17:19.000Z</time>
      </trkpt>
      <trkpt lat="43.32218" lon="5.70245">
        <ele>708.1</ele>
        <time>2019-10-18T12:17:28.000Z</time>
      </trkpt>
      <trkpt lat="43.32225" lon="5.70253">
        <ele>709</ele>
        <time>2019-10-18T12:17:39.000Z</time>
      </trkpt>
      <trkpt lat="43.32233" lon="5.7026">
        <ele>708.9</ele>
        <time>2019-10-18T12:17:48.000Z</time>
      </trkpt>
      <trkpt lat="43.32239" lon="5.7027">
        <ele>708.6</ele>
        <time>2019-10-18T12:17:59.000Z</time>
      </trkpt>
      <trkpt lat="43.32244" lon="5.7028">
        <ele>708.5</ele>
        <time>2019-10-18T12:18:7.000Z</time>
      </trkpt>
      <trkpt lat="43.32249" lon="5.70293">
        <ele>708.6</ele>
        <time>2019-10-18T12:18:16.000Z</time>
      </trkpt>
      <trkpt lat="43.32254" lon="5.70304">
        <ele>708.9</ele>
        <time>2019-10-18T12:18:26.000Z</time>
      </trkpt>
      <trkpt lat="43.32259" lon="5.70315">
        <ele>709.2</ele>
        <time>2019-10-18T12:18:36.000Z</time>
      </trkpt>
      <trkpt lat="43.32264" lon="5.70325">
        <ele>708.9</ele>
        <time>2019-10-18T12:18:45.000Z</time>
      </trkpt>
      <trkpt lat="43.32269" lon="5.70337">
        <ele>708.8</ele>
        <time>2019-10-18T12:18:54.000Z</time>
      </trkpt>
      <trkpt lat="43.32276" lon="5.70347">
        <ele>708.4</ele>
        <time>2019-10-18T12:19:3.000Z</time>
      </trkpt>
      <trkpt lat="43.3228" lon="5.70359">
        <ele>708.2</ele>
        <time>2019-10-18T12:19:13.000Z</time>
      </trkpt>
      <trkpt lat="43.32282" lon="5.70373">
        <ele>707.1</ele>
        <time>2019-10-18T12:19:23.000Z</time>
      </trkpt>
      <trkpt lat="43.32282" lon="5.70387">
        <ele>705.6</ele>
        <time>2019-10-18T12:19:33.000Z</time>
      </trkpt>
      <trkpt lat="43.32283" lon="5.70399">
        <ele>704.3</ele>
        <time>2019-10-18T12:19:43.000Z</time>
      </trkpt>
      <trkpt lat="43.32282" lon="5.70412">
        <ele>702.5</ele>
        <time>2019-10-18T12:19:54.000Z</time>
      </trkpt>
      <trkpt lat="43.32282" lon="5.70425">
        <ele>701</ele>
        <time>2019-10-18T12:20:9.000Z</time>
      </trkpt>
      <trkpt lat="43.32283" lon="5.70438">
        <ele>701.1</ele>
        <time>2019-10-18T12:20:18.000Z</time>
      </trkpt>
      <trkpt lat="43.32287" lon="5.70451">
        <ele>701.3</ele>
        <time>2019-10-18T12:20:29.000Z</time>
      </trkpt>
      <trkpt lat="43.3229" lon="5.70463">
        <ele>701.2</ele>
        <time>2019-10-18T12:20:39.000Z</time>
      </trkpt>
      <trkpt lat="43.32296" lon="5.70474">
        <ele>701.3</ele>
        <time>2019-10-18T12:20:49.000Z</time>
      </trkpt>
      <trkpt lat="43.323" lon="5.70485">
        <ele>702.2</ele>
        <time>2019-10-18T12:21:0.000Z</time>
      </trkpt>
      <trkpt lat="43.32306" lon="5.70495">
        <ele>702.7</ele>
        <time>2019-10-18T12:21:11.000Z</time>
      </trkpt>
      <trkpt lat="43.3231" lon="5.70508">
        <ele>702.7</ele>
        <time>2019-10-18T12:21:21.000Z</time>
      </trkpt>
      <trkpt lat="43.3231" lon="5.70521">
        <ele>702.6</ele>
        <time>2019-10-18T12:21:30.000Z</time>
      </trkpt>
      <trkpt lat="43.32308" lon="5.70533">
        <ele>703.1</ele>
        <time>2019-10-18T12:22:0.000Z</time>
      </trkpt>
      <trkpt lat="43.32305" lon="5.70546">
        <ele>702.6</ele>
        <time>2019-10-18T12:22:11.000Z</time>
      </trkpt>
      <trkpt lat="43.32301" lon="5.70558">
        <ele>702.7</ele>
        <time>2019-10-18T12:22:25.000Z</time>
      </trkpt>
      <trkpt lat="43.32294" lon="5.70565">
        <ele>704.2</ele>
        <time>2019-10-18T12:22:47.000Z</time>
      </trkpt>
      <trkpt lat="43.32291" lon="5.70578">
        <ele>704.1</ele>
        <time>2019-10-18T12:23:41.000Z</time>
      </trkpt>
      <trkpt lat="43.32287" lon="5.7059">
        <ele>704.2</ele>
        <time>2019-10-18T12:23:53.000Z</time>
      </trkpt>
      <trkpt lat="43.32294" lon="5.70599">
        <ele>704.1</ele>
        <time>2019-10-18T12:24:21.000Z</time>
      </trkpt>
      <trkpt lat="43.32299" lon="5.70609">
        <ele>703.5</ele>
        <time>2019-10-18T12:24:30.000Z</time>
      </trkpt>
      <trkpt lat="43.32306" lon="5.70618">
        <ele>703.1</ele>
        <time>2019-10-18T12:24:40.000Z</time>
      </trkpt>
      <trkpt lat="43.32313" lon="5.70626">
        <ele>702.5</ele>
        <time>2019-10-18T12:24:48.000Z</time>
      </trkpt>
      <trkpt lat="43.32321" lon="5.70635">
        <ele>702.1</ele>
        <time>2019-10-18T12:25:0.000Z</time>
      </trkpt>
      <trkpt lat="43.32329" lon="5.70639">
        <ele>702.1</ele>
        <time>2019-10-18T12:25:16.000Z</time>
      </trkpt>
      <trkpt lat="43.32338" lon="5.70643">
        <ele>701.7</ele>
        <time>2019-10-18T12:25:26.000Z</time>
      </trkpt>
      <trkpt lat="43.32346" lon="5.70653">
        <ele>701.5</ele>
        <time>2019-10-18T12:25:38.000Z</time>
      </trkpt>
      <trkpt lat="43.32351" lon="5.70663">
        <ele>701.6</ele>
        <time>2019-10-18T12:25:51.000Z</time>
      </trkpt>
      <trkpt lat="43.32358" lon="5.70671">
        <ele>700.9</ele>
        <time>2019-10-18T12:26:5.000Z</time>
      </trkpt>
      <trkpt lat="43.32358" lon="5.70673">
        <ele>700.9</ele>
        <time>2019-10-18T12:26:7.000Z</time>
      </trkpt>
    </trkseg>
  </trk>
</gpx>